Observation data for Dell City 1N on 05/23/2020      Previous  Date  Next       Current Mesonet Observations  Soil Data  Daily Summary Page  Observations in Plain Language
KDC1 230500Z 23003KT 17/M02 A2989 RMK A01 T01711018  RH  027%=      5-min Rain = 0
KDC1 230501Z 23003KT 17/M02 A2989 RMK A01 T01721023  RH  026%=      5-min Rain = 0
KDC1 230502Z 23002KT 17/M02 A2989 RMK A01 T01731022  RH  026%=      5-min Rain = 0
KDC1 230503Z 23002KT 17/M03 A2989 RMK A01 T01731030  RH  025%=      5-min Rain = 0
KDC1 230504Z 23004KT 17/M03 A2989 RMK A01 T01731033  RH  024%=      5-min Rain = 0
KDC1 230505Z 24003KT 17/M04 A2989 RMK A01 T01741038  RH  023%=      5-min Rain = 0
KDC1 230506Z 23004KT 17/M04 A2989 RMK A01 T01741043  RH  022%=      5-min Rain = 0
KDC1 230507Z 22003KT 17/M04 A2989 RMK A01 T01741042  RH  022%=      5-min Rain = 0
KDC1 230508Z 22002KT 18/M05 A2989 RMK A01 T01751047  RH  022%=      5-min Rain = 0
KDC1 230509Z 23002KT 18/M05 A2989 RMK A01 T01761049  RH  021%=      5-min Rain = 0
KDC1 230510Z 13000KT 18/M04 A2989 RMK A01 T01761038  RH  023%=      5-min Rain = 0
KDC1 230511Z 10001KT 17/M02 A2989 RMK A01 T01741023  RH  026%=      5-min Rain = 0
KDC1 230512Z 25001KT 17/M02 A2989 RMK A01 T01691015  RH  029%=      5-min Rain = 0
KDC1 230513Z 26002KT 17/M02 A2989 RMK A01 T01661016  RH  029%=      5-min Rain = 0
KDC1 230514Z 23001KT 16/M03 A2989 RMK A01 T01631028  RH  027%=      5-min Rain = 0
KDC1 230515Z 24001KT 16/M03 A2989 RMK A01 T01631032  RH  026%=      5-min Rain = 0
KDC1 230516Z 25001KT 16/M03 A2989 RMK A01 T01621027  RH  027%=      5-min Rain = 0
KDC1 230517Z 26001KT 16/M02 A2989 RMK A01 T01611024  RH  028%=      5-min Rain = 0
KDC1 230518Z 26001KT 16/M01 A2989 RMK A01 T01591012  RH  031%=      5-min Rain = 0
KDC1 230519Z 25001KT 16/M02 A2989 RMK A01 T01561015  RH  031%=      5-min Rain = 0
KDC1 230520Z 24001KT 16/M02 A2989 RMK A01 T01561021  RH  030%=      5-min Rain = 0
KDC1 230521Z 24002KT 16/M02 A2989 RMK A01 T01571022  RH  029%=      5-min Rain = 0
KDC1 230522Z 25002KT 16/M02 A2989 RMK A01 T01571019  RH  030%=      5-min Rain = 0
KDC1 230523Z 25002KT 16/M02 A2989 RMK A01 T01571015  RH  031%=      5-min Rain = 0
KDC1 230524Z 25002KT 16/M01 A2989 RMK A01 T01561012  RH  032%=      5-min Rain = 0
KDC1 230525Z 18002KT 15/M01 A2989 RMK A01 T01541011  RH  032%=      5-min Rain = 0
KDC1 230526Z 15004KT 15/M01 A2989 RMK A01 T01531010  RH  033%=      5-min Rain = 0
KDC1 230527Z 15003KT 15/02 A2989 RMK A01 T01510018  RH  041%=      5-min Rain = 0
KDC1 230528Z 15002KT 15/04 A2989 RMK A01 T01490037  RH  047%=      5-min Rain = 0
KDC1 230529Z 15002KT 15/03 A2989 RMK A01 T01480027  RH  044%=      5-min Rain = 0
KDC1 230530Z 15003KT 15/01 A2989 RMK A01 T01480012  RH  039%=      5-min Rain = 0
KDC1 230531Z 17004KT 15/01 A2989 RMK A01 T01490013  RH  040%=      5-min Rain = 0
KDC1 230532Z 18003KT 15/M01 A2989 RMK A01 T01511006  RH  034%=      5-min Rain = 0
KDC1 230533Z 20003KT 15/M02 A2989 RMK A01 T01541015  RH  031%=      5-min Rain = 0
KDC1 230534Z 19003KT 16/M02 A2989 RMK A01 T01551015  RH  031%=      5-min Rain = 0
KDC1 230535Z 21002KT 16/M02 A2989 RMK A01 T01561019  RH  030%=      5-min Rain = 0
KDC1 230536Z 21002KT 16/M02 A2989 RMK A01 T01571023  RH  029%=      5-min Rain = 0
KDC1 230537Z 21002KT 16/M03 A2989 RMK A01 T01581032  RH  027%=      5-min Rain = 0
KDC1 230538Z 22002KT 16/M03 A2989 RMK A01 T01601030  RH  027%=      5-min Rain = 0
KDC1 230539Z 21003KT 16/M03 A2989 RMK A01 T01611028  RH  027%=      5-min Rain = 0
KDC1 230540Z 21002KT 16/M03 A2989 RMK A01 T01611027  RH  027%=      5-min Rain = 0
KDC1 230541Z 23003KT 16/M02 A2989 RMK A01 T01611021  RH  029%=      5-min Rain = 0
KDC1 230542Z 21002KT 16/M02 A2989 RMK A01 T01581018  RH  030%=      5-min Rain = 0
KDC1 230543Z 20002KT 15/M02 A2989 RMK A01 T01541017  RH  031%=      5-min Rain = 0
KDC1 230544Z 18003KT 15/M03 A2989 RMK A01 T01531026  RH  029%=      5-min Rain = 0
KDC1 230545Z 17002KT 15/M04 A2989 RMK A01 T01541038  RH  026%=      5-min Rain = 0
KDC1 230546Z 18003KT 16/M04 A2989 RMK A01 T01581040  RH  025%=      5-min Rain = 0
KDC1 230547Z 17002KT 16/M04 A2989 RMK A01 T01621041  RH  025%=      5-min Rain = 0
KDC1 230548Z 18002KT 17/M04 A2989 RMK A01 T01661037  RH  025%=      5-min Rain = 0
KDC1 230549Z 18003KT 17/M04 A2989 RMK A01 T01691038  RH  024%=      5-min Rain = 0
KDC1 230550Z 17003KT 17/M04 A2989 RMK A01 T01701038  RH  024%=      5-min Rain = 0
KDC1 230551Z 16003KT 17/M04 A2989 RMK A01 T01721035  RH  024%=      5-min Rain = 0
KDC1 230552Z 16002KT 17/M04 A2989 RMK A01 T01741035  RH  024%=      5-min Rain = 0
KDC1 230553Z 16003KT 18/M04 A2989 RMK A01 T01751036  RH  023%=      5-min Rain = 0
KDC1 230554Z 16002KT 18/M04 A2989 RMK A01 T01751036  RH  023%=      5-min Rain = 0
KDC1 230555Z 18003KT 18/M04 A2989 RMK A01 T01761035  RH  023%=      5-min Rain = 0
KDC1 230556Z 19003KT 18/M03 A2989 RMK A01 T01761034  RH  024%=      5-min Rain = 0
KDC1 230557Z 21003KT 18/M03 A2989 RMK A01 T01761033  RH  024%=      5-min Rain = 0
KDC1 230558Z 22003KT 18/M03 A2989 RMK A01 T01751033  RH  024%=      5-min Rain = 0
KDC1 230559Z 21002KT 18/M04 A2989 RMK A01 T01751037  RH  023%=      5-min Rain = 0
KDC1 230600Z 22002KT 18/M04 A2989 RMK A01 T01751040  RH  023%=      5-min Rain = 0
KDC1 230601Z 22003KT 18/M04 A2989 RMK A01 T01751038  RH  023%=      5-min Rain = 0
KDC1 230602Z 21003KT 18/M04 A2989 RMK A01 T01761041  RH  022%=      5-min Rain = 0
KDC1 230603Z 21002KT 18/M05 A2989 RMK A01 T01771048  RH  021%=      5-min Rain = 0
KDC1 230604Z 21002KT 18/M05 A2989 RMK A01 T01781048  RH  021%=      5-min Rain = 0
KDC1 230605Z 22003KT 18/M05 A2989 RMK A01 T01791048  RH  021%=      5-min Rain = 0
KDC1 230606Z 23002KT 18/M03 A2989 RMK A01 T01791032  RH  024%=      5-min Rain = 0
KDC1 230607Z 22002KT 18/M02 A2989 RMK A01 T01751020  RH  026%=      5-min Rain = 0
KDC1 230608Z 21002KT 17/M03 A2989 RMK A01 T01721032  RH  025%=      5-min Rain = 0
KDC1 230609Z 21002KT 17/M04 A2989 RMK A01 T01721039  RH  023%=      5-min Rain = 0
KDC1 230610Z 22003KT 17/M04 A2989 RMK A01 T01731043  RH  023%=      5-min Rain = 0
KDC1 230611Z 24003KT 17/M04 A2989 RMK A01 T01741036  RH  024%=      5-min Rain = 0
KDC1 230612Z 25003KT 18/M03 A2989 RMK A01 T01751034  RH  024%=      5-min Rain = 0
KDC1 230613Z 25004KT 17/M01 A2989 RMK A01 T01701005  RH  030%=      5-min Rain = 0
KDC1 230614Z 25004KT 16/00 A2989 RMK A01 T01620004  RH  034%=      5-min Rain = 0
KDC1 230615Z 25004KT 16/01 A2989 RMK A01 T01570005  RH  035%=      5-min Rain = 0
KDC1 230616Z 25004KT 16/00 A2989 RMK A01 T01550002  RH  035%=      5-min Rain = 0
KDC1 230617Z 24004KT 16/M01 A2989 RMK A01 T01551012  RH  032%=      5-min Rain = 0
KDC1 230618Z 24004KT 16/M02 A2989 RMK A01 T01561017  RH  030%=      5-min Rain = 0
KDC1 230619Z 23004KT 16/M03 A2989 RMK A01 T01601031  RH  027%=      5-min Rain = 0
KDC1 230620Z 24003KT 16/M02 A2989 RMK A01 T01631017  RH  029%=      5-min Rain = 0
KDC1 230621Z 25003KT 16/M02 A2989 RMK A01 T01621017  RH  029%=      5-min Rain = 0
KDC1 230622Z 24004KT 16/M02 A2989 RMK A01 T01601017  RH  030%=      5-min Rain = 0
KDC1 230623Z 25004KT 16/M02 A2989 RMK A01 T01551017  RH  031%=      5-min Rain = 0
KDC1 230624Z 24004KT 15/M02 A2989 RMK A01 T01511023  RH  030%=      5-min Rain = 0
KDC1 230625Z 23004KT 15/M03 A2989 RMK A01 T01501029  RH  029%=      5-min Rain = 0
KDC1 230626Z 23003KT 15/M03 A2989 RMK A01 T01541034  RH  027%=      5-min Rain = 0
KDC1 230627Z 23004KT 16/M03 A2989 RMK A01 T01571030  RH  028%=      5-min Rain = 0
KDC1 230628Z 24004KT 16/M04 A2989 RMK A01 T01591040  RH  025%=      5-min Rain = 0
KDC1 230629Z 24005KT 16/M05 A2989 RMK A01 T01621047  RH  024%=      5-min Rain = 0
KDC1 230630Z 25005KT 16/M04 A2989 RMK A01 T01641041  RH  024%=      5-min Rain = 0
KDC1 230631Z 24005KT 16/M03 A2989 RMK A01 T01621033  RH  026%=      5-min Rain = 0
KDC1 230632Z 23005KT 16/M04 A2989 RMK A01 T01591035  RH  026%=      5-min Rain = 0
KDC1 230633Z 23004KT 16/M04 A2989 RMK A01 T01581041  RH  025%=      5-min Rain = 0
KDC1 230634Z 22005KT 16/M05 A2989 RMK A01 T01601053  RH  023%=      5-min Rain = 0
KDC1 230635Z 22005KT 16/M05 A2989 RMK A01 T01631052  RH  022%=      5-min Rain = 0
KDC1 230636Z 23004KT 17/M05 A2988 RMK A01 T01651052  RH  022%=      5-min Rain = 0
KDC1 230637Z 23005KT 17/M05 A2988 RMK A01 T01661047  RH  023%=      5-min Rain = 0
KDC1 230638Z 24005KT 17/M05 A2988 RMK A01 T01651047  RH  023%=      5-min Rain = 0
KDC1 230639Z 24005KT 16/M05 A2988 RMK A01 T01641048  RH  023%=      5-min Rain = 0
KDC1 230640Z 25006KT 16/M05 A2988 RMK A01 T01641045  RH  023%=      5-min Rain = 0
KDC1 230641Z 25006KT 16/M04 A2988 RMK A01 T01631043  RH  024%=      5-min Rain = 0
KDC1 230642Z 25006KT 16/M04 A2988 RMK A01 T01621039  RH  025%=      5-min Rain = 0
KDC1 230643Z 24005KT 16/M04 A2988 RMK A01 T01611039  RH  025%=      5-min Rain = 0
KDC1 230644Z 24004KT 16/M03 A2988 RMK A01 T01621029  RH  027%=      5-min Rain = 0
KDC1 230645Z 24005KT 16/M03 A2988 RMK A01 T01601029  RH  027%=      5-min Rain = 0
KDC1 230646Z 25006KT 16/M03 A2988 RMK A01 T01591026  RH  028%=      5-min Rain = 0
KDC1 230647Z 25006KT 16/M02 A2988 RMK A01 T01571021  RH  030%=      5-min Rain = 0
KDC1 230648Z 25006KT 16/M02 A2988 RMK A01 T01551020  RH  030%=      5-min Rain = 0
KDC1 230649Z 25005KT 15/M02 A2988 RMK A01 T01541022  RH  030%=      5-min Rain = 0
KDC1 230650Z 25006KT 15/M02 A2988 RMK A01 T01531023  RH  030%=      5-min Rain = 0
KDC1 230651Z 25006KT 15/M02 A2988 RMK A01 T01531021  RH  030%=      5-min Rain = 0
KDC1 230652Z 25006KT 15/M01 A2988 RMK A01 T01531013  RH  032%=      5-min Rain = 0
KDC1 230653Z 25006KT 15/M01 A2988 RMK A01 T01501009  RH  034%=      5-min Rain = 0
KDC1 230654Z 25005KT 15/M01 A2988 RMK A01 T01471009  RH  034%=      5-min Rain = 0
KDC1 230655Z 25006KT 15/M01 A2988 RMK A01 T01471010  RH  034%=      5-min Rain = 0
KDC1 230656Z 25006KT 15/M00 A2988 RMK A01 T01461004  RH  036%=      5-min Rain = 0
KDC1 230657Z 25005KT 15/M01 A2988 RMK A01 T01451006  RH  036%=      5-min Rain = 0
KDC1 230658Z 25006KT 14/M01 A2988 RMK A01 T01441009  RH  035%=      5-min Rain = 0
KDC1 230659Z 25006KT 14/M01 A2988 RMK A01 T01441006  RH  036%=      5-min Rain = 0
KDC1 230700Z 25006KT 14/M01 A2988 RMK A01 T01431010  RH  035%=      5-min Rain = 0
KDC1 230701Z 25005KT 14/M01 A2988 RMK A01 T01421012  RH  035%=      5-min Rain = 0
KDC1 230702Z 25005KT 14/M01 A2988 RMK A01 T01411012  RH  035%=      5-min Rain = 0
KDC1 230703Z 26005KT 14/M01 A2988 RMK A01 T01411014  RH  034%=      5-min Rain = 0
KDC1 230704Z 26005KT 14/M02 A2988 RMK A01 T01391019  RH  034%=      5-min Rain = 0
KDC1 230705Z 27005KT 14/M02 A2988 RMK A01 T01351022  RH  034%=      5-min Rain = 0
KDC1 230706Z 26006KT 13/M02 A2988 RMK A01 T01311024  RH  034%=      5-min Rain = 0
KDC1 230707Z 26006KT 13/M02 A2988 RMK A01 T01301024  RH  034%=      5-min Rain = 0
KDC1 230708Z 26005KT 13/M02 A2988 RMK A01 T01291021  RH  035%=      5-min Rain = 0
KDC1 230709Z 26005KT 13/M02 A2988 RMK A01 T01281024  RH  035%=      5-min Rain = 0
KDC1 230710Z 25005KT 13/M03 A2988 RMK A01 T01301030  RH  033%=      5-min Rain = 0
KDC1 230711Z 24003KT 13/M04 A2988 RMK A01 T01331036  RH  031%=      5-min Rain = 0
KDC1 230712Z 24002KT 14/M04 A2988 RMK A01 T01351040  RH  029%=      5-min Rain = 0
KDC1 230713Z 24003KT 14/M04 A2988 RMK A01 T01371044  RH  028%=      5-min Rain = 0
KDC1 230714Z 24003KT 14/M04 A2988 RMK A01 T01391042  RH  028%=      5-min Rain = 0
KDC1 230715Z 25003KT 14/M03 A2988 RMK A01 T01401034  RH  030%=      5-min Rain = 0
KDC1 230716Z 25003KT 14/M03 A2988 RMK A01 T01411034  RH  030%=      5-min Rain = 0
KDC1 230717Z 26002KT 14/M03 A2988 RMK A01 T01431033  RH  030%=      5-min Rain = 0
KDC1 230718Z 27002KT 14/M03 A2988 RMK A01 T01431034  RH  029%=      5-min Rain = 0
KDC1 230719Z 28002KT 14/M04 A2989 RMK A01 T01441037  RH  028%=      5-min Rain = 0
KDC1 230720Z 28002KT 14/M04 A2989 RMK A01 T01441036  RH  028%=      5-min Rain = 0
KDC1 230721Z 26001KT 15/M04 A2989 RMK A01 T01451037  RH  028%=      5-min Rain = 0
KDC1 230722Z 00000KT 15/M03 A2989 RMK A01 T01451030  RH  030%=      5-min Rain = 0
KDC1 230723Z 00000KT 15/M02 A2989 RMK A01 T01451020  RH  032%=      5-min Rain = 0
KDC1 230724Z 00000KT 14/M02 A2989 RMK A01 T01431019  RH  033%=      5-min Rain = 0
KDC1 230725Z 00000KT 14/M01 A2989 RMK A01 T01411011  RH  035%=      5-min Rain = 0
KDC1 230726Z 34000KT 14/M01 A2989 RMK A01 T01391005  RH  037%=      5-min Rain = 0
KDC1 230727Z 35001KT 14/M00 A2989 RMK A01 T01361004  RH  038%=      5-min Rain = 0
KDC1 230728Z 35001KT 13/M01 A2988 RMK A01 T01341006  RH  038%=      5-min Rain = 0
KDC1 230729Z 00001KT 13/00 A2988 RMK A01 T01320001  RH  041%=      5-min Rain = 0
KDC1 230730Z 00002KT 13/00 A2988 RMK A01 T01280003  RH  042%=      5-min Rain = 0
KDC1 230731Z 35003KT 13/01 A2988 RMK A01 T01250005  RH  044%=      5-min Rain = 0
KDC1 230732Z 35003KT 12/M00 A2988 RMK A01 T01231004  RH  042%=      5-min Rain = 0
KDC1 230733Z 35004KT 13/M00 A2988 RMK A01 T01251004  RH  041%=      5-min Rain = 0
KDC1 230734Z 35004KT 13/M00 A2988 RMK A01 T01261001  RH  041%=      5-min Rain = 0
KDC1 230735Z 35005KT 13/00 A2988 RMK A01 T01250002  RH  043%=      5-min Rain = 0
KDC1 230736Z 35005KT 13/00 A2988 RMK A01 T01250004  RH  043%=      5-min Rain = 0
KDC1 230737Z 01005KT 12/00 A2988 RMK A01 T01240004  RH  044%=      5-min Rain = 0
KDC1 230738Z 35004KT 12/00 A2988 RMK A01 T01240000  RH  043%=      5-min Rain = 0
KDC1 230739Z 36005KT 12/M00 A2988 RMK A01 T01231002  RH  042%=      5-min Rain = 0
KDC1 230740Z 35005KT 12/M00 A2988 RMK A01 T01231003  RH  042%=      5-min Rain = 0
KDC1 230741Z 01006KT 13/M00 A2988 RMK A01 T01251004  RH  041%=      5-min Rain = 0
KDC1 230742Z 34003KT 13/M00 A2988 RMK A01 T01271002  RH  041%=      5-min Rain = 0
KDC1 230743Z 01004KT 12/01 A2988 RMK A01 T01240013  RH  047%=      5-min Rain = 0
KDC1 230744Z 35005KT 12/00 A2988 RMK A01 T01210002  RH  044%=      5-min Rain = 0
KDC1 230745Z 00007KT 12/M01 A2988 RMK A01 T01241009  RH  040%=      5-min Rain = 0
KDC1 230746Z 01008KT 13/M02 A2988 RMK A01 T01291016  RH  036%=      5-min Rain = 0
KDC1 230747Z 35005KT 13/M03 A2988 RMK A01 T01341026  RH  033%=      5-min Rain = 0
KDC1 230748Z 35005KT 14/M04 A2988 RMK A01 T01401038  RH  029%=      5-min Rain = 0
KDC1 230749Z 34005KT 15/M05 A2988 RMK A01 T01481046  RH  026%=      5-min Rain = 0
KDC1 230750Z 33006KT 16/M05 A2988 RMK A01 T01571049  RH  024%=      5-min Rain = 0
KDC1 230751Z 34005KT 16/M05 A2988 RMK A01 T01621051  RH  023%=      5-min Rain = 0
KDC1 230752Z 35005KT 16/M05 A2988 RMK A01 T01641048  RH  023%=      5-min Rain = 0
KDC1 230753Z 35005KT 16/M05 A2988 RMK A01 T01641050  RH  023%=      5-min Rain = 0
KDC1 230754Z 35005KT 17/M05 A2988 RMK A01 T01651051  RH  022%=      5-min Rain = 0
KDC1 230755Z 35004KT 17/M06 A2988 RMK A01 T01671059  RH  021%=      5-min Rain = 0
KDC1 230756Z 01005KT 17/M06 A2988 RMK A01 T01711057  RH  021%=      5-min Rain = 0
KDC1 230757Z 36004KT 17/M05 A2988 RMK A01 T01701051  RH  021%=      5-min Rain = 0
KDC1 230758Z 34003KT 17/M05 A2988 RMK A01 T01681051  RH  022%=      5-min Rain = 0
KDC1 230759Z 34002KT 17/M06 A2988 RMK A01 T01661055  RH  022%=      5-min Rain = 0
KDC1 230800Z 33001KT 17/M06 A2988 RMK A01 T01661056  RH  021%=      5-min Rain = 0
KDC1 230801Z 33002KT 17/M05 A2988 RMK A01 T01651054  RH  022%=      5-min Rain = 0
KDC1 230802Z 33003KT 17/M05 A2988 RMK A01 T01651050  RH  023%=      5-min Rain = 0
KDC1 230803Z 32003KT 16/M05 A2988 RMK A01 T01641050  RH  023%=      5-min Rain = 0
KDC1 230804Z 33003KT 17/M05 A2988 RMK A01 T01651049  RH  023%=      5-min Rain = 0
KDC1 230805Z 36003KT 17/M05 A2988 RMK A01 T01651047  RH  023%=      5-min Rain = 0
KDC1 230806Z 36003KT 16/M04 A2988 RMK A01 T01631044  RH  024%=      5-min Rain = 0
KDC1 230807Z 02004KT 16/M04 A2988 RMK A01 T01621044  RH  024%=      5-min Rain = 0
KDC1 230808Z 04004KT 16/M04 A2988 RMK A01 T01621039  RH  025%=      5-min Rain = 0
KDC1 230809Z 01002KT 16/M04 A2988 RMK A01 T01601037  RH  026%=      5-min Rain = 0
KDC1 230810Z 01002KT 16/M04 A2988 RMK A01 T01571039  RH  026%=      5-min Rain = 0
KDC1 230811Z 04001KT 16/M04 A2988 RMK A01 T01551038  RH  026%=      5-min Rain = 0
KDC1 230812Z 05001KT 15/M04 A2988 RMK A01 T01541040  RH  026%=      5-min Rain = 0
KDC1 230813Z 02001KT 15/M04 A2988 RMK A01 T01541042  RH  026%=      5-min Rain = 0
KDC1 230814Z 30001KT 16/M04 A2988 RMK A01 T01551043  RH  025%=      5-min Rain = 0
KDC1 230815Z 24000KT 16/M04 A2988 RMK A01 T01561043  RH  025%=      5-min Rain = 0
KDC1 230816Z 00000KT 16/M04 A2988 RMK A01 T01591043  RH  025%=      5-min Rain = 0
KDC1 230817Z 00000KT 16/M04 A2988 RMK A01 T01591041  RH  025%=      5-min Rain = 0
KDC1 230818Z 35000KT 16/M04 A2988 RMK A01 T01571039  RH  026%=      5-min Rain = 0
KDC1 230819Z 33001KT 16/M04 A2988 RMK A01 T01561041  RH  026%=      5-min Rain = 0
KDC1 230820Z 32001KT 16/M04 A2988 RMK A01 T01551041  RH  026%=      5-min Rain = 0
KDC1 230821Z 33001KT 15/M04 A2988 RMK A01 T01531038  RH  027%=      5-min Rain = 0
KDC1 230822Z 34001KT 15/M03 A2988 RMK A01 T01511032  RH  028%=      5-min Rain = 0
KDC1 230823Z 34001KT 15/M03 A2988 RMK A01 T01491029  RH  029%=      5-min Rain = 0
KDC1 230824Z 34001KT 15/M03 A2988 RMK A01 T01481032  RH  029%=      5-min Rain = 0
KDC1 230825Z 35000KT 15/M02 A2988 RMK A01 T01481021  RH  031%=      5-min Rain = 0
KDC1 230826Z 04001KT 15/M01 A2988 RMK A01 T01471013  RH  033%=      5-min Rain = 0
KDC1 230827Z 04002KT 15/M01 A2988 RMK A01 T01461012  RH  034%=      5-min Rain = 0
KDC1 230828Z 00002KT 15/M02 A2988 RMK A01 T01461023  RH  031%=      5-min Rain = 0
KDC1 230829Z 33002KT 15/M03 A2988 RMK A01 T01471028  RH  030%=      5-min Rain = 0
KDC1 230830Z 33002KT 15/M03 A2988 RMK A01 T01481029  RH  029%=      5-min Rain = 0
KDC1 230831Z 33002KT 15/M03 A2988 RMK A01 T01491029  RH  029%=      5-min Rain = 0
KDC1 230832Z 34001KT 15/M03 A2988 RMK A01 T01521031  RH  028%=      5-min Rain = 0
KDC1 230833Z 06001KT 16/M03 A2988 RMK A01 T01551031  RH  028%=      5-min Rain = 0
KDC1 230834Z 02001KT 16/M04 A2988 RMK A01 T01551035  RH  027%=      5-min Rain = 0
KDC1 230835Z 02001KT 16/M04 A2988 RMK A01 T01561042  RH  025%=      5-min Rain = 0
KDC1 230836Z 01002KT 16/M04 A2988 RMK A01 T01581040  RH  025%=      5-min Rain = 0
KDC1 230837Z 03002KT 16/M04 A2988 RMK A01 T01591041  RH  025%=      5-min Rain = 0
KDC1 230838Z 03002KT 16/M04 A2988 RMK A01 T01591039  RH  025%=      5-min Rain = 0
KDC1 230839Z 00004KT 16/M03 A2988 RMK A01 T01581034  RH  027%=      5-min Rain = 0
KDC1 230840Z 01004KT 16/M03 A2988 RMK A01 T01551026  RH  029%=      5-min Rain = 0
KDC1 230841Z 36004KT 15/M02 A2987 RMK A01 T01501023  RH  030%=      5-min Rain = 0
KDC1 230842Z 36004KT 15/M03 A2987 RMK A01 T01471025  RH  030%=      5-min Rain = 0
KDC1 230843Z 00004KT 15/M02 A2987 RMK A01 T01451022  RH  032%=      5-min Rain = 0
KDC1 230844Z 00005KT 14/M02 A2987 RMK A01 T01431019  RH  033%=      5-min Rain = 0
KDC1 230845Z 01006KT 14/M02 A2987 RMK A01 T01411019  RH  033%=      5-min Rain = 0
KDC1 230846Z 00005KT 14/M02 A2987 RMK A01 T01401023  RH  032%=      5-min Rain = 0
KDC1 230847Z 01005KT 14/M02 A2987 RMK A01 T01391023  RH  032%=      5-min Rain = 0
KDC1 230848Z 01005KT 14/M03 A2987 RMK A01 T01391026  RH  032%=      5-min Rain = 0
KDC1 230849Z 01004KT 14/M03 A2988 RMK A01 T01411029  RH  031%=      5-min Rain = 0
KDC1 230850Z 02005KT 14/M03 A2988 RMK A01 T01431032  RH  030%=      5-min Rain = 0
KDC1 230851Z 02004KT 15/M03 A2988 RMK A01 T01471032  RH  029%=      5-min Rain = 0
KDC1 230852Z 03003KT 15/M03 A2988 RMK A01 T01491032  RH  028%=      5-min Rain = 0
KDC1 230853Z 04002KT 15/M03 A2988 RMK A01 T01501032  RH  028%=      5-min Rain = 0
KDC1 230854Z 06001KT 15/M03 A2988 RMK A01 T01511032  RH  028%=      5-min Rain = 0
KDC1 230855Z 07002KT 15/M03 A2988 RMK A01 T01511031  RH  028%=      5-min Rain = 0
KDC1 230856Z 05002KT 15/M03 A2988 RMK A01 T01511029  RH  029%=      5-min Rain = 0
KDC1 230857Z 05004KT 15/M03 A2988 RMK A01 T01511027  RH  029%=      5-min Rain = 0
KDC1 230858Z 05007KT 15/M03 A2988 RMK A01 T01511034  RH  028%=      5-min Rain = 0
KDC1 230859Z 07005KT 15/M03 A2988 RMK A01 T01481031  RH  029%=      5-min Rain = 0
KDC1 230900Z 09002KT 14/M03 A2988 RMK A01 T01441028  RH  030%=      5-min Rain = 0
KDC1 230901Z 08004KT 14/M02 A2988 RMK A01 T01411024  RH  032%=      5-min Rain = 0
KDC1 230902Z 10005KT 14/M02 A2988 RMK A01 T01381022  RH  033%=      5-min Rain = 0
KDC1 230903Z 09006KT 13/M02 A2988 RMK A01 T01341015  RH  036%=      5-min Rain = 0
KDC1 230904Z 08008KT 13/M02 A2988 RMK A01 T01321019  RH  035%=      5-min Rain = 0
KDC1 230905Z 08008KT 13/M03 A2988 RMK A01 T01341027  RH  033%=      5-min Rain = 0
KDC1 230906Z 08009KT 14/M03 A2988 RMK A01 T01381028  RH  032%=      5-min Rain = 0
KDC1 230907Z 07010KT 14/M03 A2988 RMK A01 T01391027  RH  032%=      5-min Rain = 0
KDC1 230908Z 06011KT 14/M03 A2988 RMK A01 T01401028  RH  031%=      5-min Rain = 0
KDC1 230909Z 04008KT 15/M04 A2988 RMK A01 T01521042  RH  026%=      5-min Rain = 0
KDC1 230910Z 04005KT 17/M05 A2988 RMK A01 T01721048  RH  022%=      5-min Rain = 0
KDC1 230911Z 03004KT 18/M04 A2988 RMK A01 T01801040  RH  022%=      5-min Rain = 0
KDC1 230912Z 34005KT 18/M04 A2988 RMK A01 T01751038  RH  023%=      5-min Rain = 0
KDC1 230913Z 33004KT 17/M05 A2988 RMK A01 T01741048  RH  022%=      5-min Rain = 0
KDC1 230914Z 30003KT 18/M05 A2988 RMK A01 T01821052  RH  020%=      5-min Rain = 0
KDC1 230915Z 34004KT 19/M05 A2988 RMK A01 T01861049  RH  020%=      5-min Rain = 0
KDC1 230916Z 31004KT 19/M05 A2988 RMK A01 T01851046  RH  020%=      5-min Rain = 0
KDC1 230917Z 29004KT 19/M05 A2987 RMK A01 T01851052  RH  020%=      5-min Rain = 0
KDC1 230918Z 29007KT 19/M05 A2987 RMK A01 T01881053  RH  019%=      5-min Rain = 0
KDC1 230919Z 32008KT 20/M05 A2987 RMK A01 T01951053  RH  018%=      5-min Rain = 0
KDC1 230920Z 30007KT 20/M05 A2987 RMK A01 T01991050  RH  018%=      5-min Rain = 0
KDC1 230921Z 29007KT 20/M05 A2987 RMK A01 T02001051  RH  018%=      5-min Rain = 0
KDC1 230922Z 28006KT 21/M05 A2987 RMK A01 T02061051  RH  017%=      5-min Rain = 0
KDC1 230923Z 27007KT 21/M05 A2987 RMK A01 T02101051  RH  017%=      5-min Rain = 0
KDC1 230924Z 25005KT 21/M05 A2987 RMK A01 T02111051  RH  017%=      5-min Rain = 0
KDC1 230925Z 27006KT 21/M05 A2987 RMK A01 T02111050  RH  017%=      5-min Rain = 0
KDC1 230926Z 26006KT 21/M05 A2987 RMK A01 T02111051  RH  017%=      5-min Rain = 0
KDC1 230927Z 28008KT 21/M05 A2987 RMK A01 T02121049  RH  017%=      5-min Rain = 0
KDC1 230928Z 29012KT 21/M05 A2987 RMK A01 T02111049  RH  017%=      5-min Rain = 0
KDC1 230929Z 27009G14KT 21/M05 A2987 RMK A01 T02131049  RH  017%=      5-min Rain = 0
KDC1 230930Z 27006KT 22/M05 A2987 RMK A01 T02151048  RH  017%=      5-min Rain = 0
KDC1 230931Z 28009KT 21/M05 A2987 RMK A01 T02141048  RH  017%=      5-min Rain = 0
KDC1 230932Z 27011KT 21/M05 A2987 RMK A01 T02111049  RH  017%=      5-min Rain = 0
KDC1 230933Z 29011G16KT 21/M05 A2987 RMK A01 T02131049  RH  017%=      5-min Rain = 0
KDC1 230934Z 30006KT 21/M04 A2987 RMK A01 T02121042  RH  018%=      5-min Rain = 0
KDC1 230935Z 28006KT 21/M04 A2987 RMK A01 T02071039  RH  019%=      5-min Rain = 0
KDC1 230936Z 29009KT 20/M04 A2987 RMK A01 T02031041  RH  019%=      5-min Rain = 0
KDC1 230937Z 27006KT 20/M04 A2987 RMK A01 T02021043  RH  019%=      5-min Rain = 0
KDC1 230938Z 29005KT 20/M04 A2987 RMK A01 T02011039  RH  020%=      5-min Rain = 0
KDC1 230939Z 30006KT 20/M04 A2987 RMK A01 T01981039  RH  020%=      5-min Rain = 0
KDC1 230940Z 28006KT 20/M04 A2987 RMK A01 T01971042  RH  019%=      5-min Rain = 0
KDC1 230941Z 30002KT 20/M04 A2987 RMK A01 T01981043  RH  019%=      5-min Rain = 0
KDC1 230942Z 34003KT 20/M04 A2987 RMK A01 T01971043  RH  019%=      5-min Rain = 0
KDC1 230943Z 02002KT 20/M04 A2988 RMK A01 T01961043  RH  019%=      5-min Rain = 0
KDC1 230944Z 09003KT 19/M05 A2988 RMK A01 T01921045  RH  020%=      5-min Rain = 0
KDC1 230945Z 10003KT 18/M04 A2988 RMK A01 T01811044  RH  021%=      5-min Rain = 0
KDC1 230946Z 09004KT 17/M04 A2988 RMK A01 T01721037  RH  024%=      5-min Rain = 0
KDC1 230947Z 09005KT 16/M04 A2988 RMK A01 T01631036  RH  025%=      5-min Rain = 0
KDC1 230948Z 09004KT 16/M04 A2988 RMK A01 T01561044  RH  025%=      5-min Rain = 0
KDC1 230949Z 12004KT 15/M04 A2988 RMK A01 T01521041  RH  026%=      5-min Rain = 0
KDC1 230950Z 13004KT 15/M02 A2988 RMK A01 T01481024  RH  030%=      5-min Rain = 0
KDC1 230951Z 13002KT 14/M02 A2988 RMK A01 T01431016  RH  033%=      5-min Rain = 0
KDC1 230952Z 15004KT 14/M01 A2988 RMK A01 T01391012  RH  035%=      5-min Rain = 0
KDC1 230953Z 15005KT 14/M01 A2988 RMK A01 T01381011  RH  036%=      5-min Rain = 0
KDC1 230954Z 14004KT 14/M01 A2988 RMK A01 T01381014  RH  035%=      5-min Rain = 0
KDC1 230955Z 11002KT 14/M01 A2988 RMK A01 T01381012  RH  035%=      5-min Rain = 0
KDC1 230956Z 12001KT 14/M01 A2988 RMK A01 T01391008  RH  036%=      5-min Rain = 0
KDC1 230957Z 11002KT 14/M01 A2988 RMK A01 T01381010  RH  036%=      5-min Rain = 0
KDC1 230958Z 15003KT 14/M01 A2988 RMK A01 T01381014  RH  035%=      5-min Rain = 0
KDC1 230959Z 15001KT 14/M01 A2988 RMK A01 T01381011  RH  036%=      5-min Rain = 0
KDC1 231000Z 12001KT 14/M01 A2988 RMK A01 T01381012  RH  035%=      5-min Rain = 0
KDC1 231001Z 11000KT 14/M01 A2988 RMK A01 T01381010  RH  036%=      5-min Rain = 0
KDC1 231002Z 35000KT 14/M01 A2988 RMK A01 T01381012  RH  036%=      5-min Rain = 0
KDC1 231003Z 34002KT 14/M02 A2988 RMK A01 T01381018  RH  034%=      5-min Rain = 0
KDC1 231004Z 19002KT 14/M02 A2988 RMK A01 T01391021  RH  033%=      5-min Rain = 0
KDC1 231005Z 17001KT 14/M02 A2988 RMK A01 T01391021  RH  033%=      5-min Rain = 0
KDC1 231006Z 13000KT 14/M02 A2988 RMK A01 T01381024  RH  033%=      5-min Rain = 0
KDC1 231007Z 29001KT 14/M03 A2988 RMK A01 T01401027  RH  031%=      5-min Rain = 0
KDC1 231008Z 30001KT 14/M03 A2988 RMK A01 T01411026  RH  031%=      5-min Rain = 0
KDC1 231009Z 15002KT 14/M03 A2988 RMK A01 T01431027  RH  031%=      5-min Rain = 0
KDC1 231010Z 17002KT 14/M03 A2988 RMK A01 T01441027  RH  031%=      5-min Rain = 0
KDC1 231011Z 15002KT 15/M03 A2988 RMK A01 T01461025  RH  031%=      5-min Rain = 0
KDC1 231012Z 14003KT 15/M02 A2988 RMK A01 T01471023  RH  031%=      5-min Rain = 0
KDC1 231013Z 13003KT 15/M02 A2988 RMK A01 T01481020  RH  032%=      5-min Rain = 0
KDC1 231014Z 14004KT 15/M02 A2988 RMK A01 T01491022  RH  031%=      5-min Rain = 0
KDC1 231015Z 16003KT 15/M02 A2988 RMK A01 T01501019  RH  031%=      5-min Rain = 0
KDC1 231016Z 14004KT 15/M02 A2988 RMK A01 T01511024  RH  030%=      5-min Rain = 0
KDC1 231017Z 15004KT 15/M02 A2988 RMK A01 T01511019  RH  031%=      5-min Rain = 0
KDC1 231018Z 16004KT 15/M01 A2988 RMK A01 T01511012  RH  033%=      5-min Rain = 0
KDC1 231019Z 15005KT 15/M01 A2988 RMK A01 T01491013  RH  033%=      5-min Rain = 0
KDC1 231020Z 14006KT 15/M02 A2988 RMK A01 T01491016  RH  032%=      5-min Rain = 0
KDC1 231021Z 14005KT 15/M03 A2988 RMK A01 T01521028  RH  029%=      5-min Rain = 0
KDC1 231022Z 14005KT 16/M03 A2989 RMK A01 T01561029  RH  028%=      5-min Rain = 0
KDC1 231023Z 14004KT 16/M03 A2989 RMK A01 T01581027  RH  028%=      5-min Rain = 0
KDC1 231024Z 13004KT 16/M03 A2989 RMK A01 T01591029  RH  027%=      5-min Rain = 0
KDC1 231025Z 15003KT 16/M03 A2989 RMK A01 T01601028  RH  027%=      5-min Rain = 0
KDC1 231026Z 16003KT 16/M03 A2989 RMK A01 T01611026  RH  028%=      5-min Rain = 0
KDC1 231027Z 16004KT 16/M03 A2989 RMK A01 T01621031  RH  027%=      5-min Rain = 0
KDC1 231028Z 16003KT 16/M03 A2989 RMK A01 T01641030  RH  026%=      5-min Rain = 0
KDC1 231029Z 16004KT 16/M03 A2989 RMK A01 T01641030  RH  026%=      5-min Rain = 0
KDC1 231030Z 16004KT 17/M03 A2989 RMK A01 T01651027  RH  027%=      5-min Rain = 0
KDC1 231031Z 17004KT 16/M02 A2989 RMK A01 T01641019  RH  029%=      5-min Rain = 0
KDC1 231032Z 18004KT 16/M02 A2989 RMK A01 T01601017  RH  030%=      5-min Rain = 0
KDC1 231033Z 19004KT 16/M02 A2989 RMK A01 T01581020  RH  030%=      5-min Rain = 0
KDC1 231034Z 20003KT 16/M03 A2989 RMK A01 T01571025  RH  029%=      5-min Rain = 0
KDC1 231035Z 19002KT 16/M03 A2989 RMK A01 T01561026  RH  028%=      5-min Rain = 0
KDC1 231036Z 24001KT 15/M01 A2989 RMK A01 T01541013  RH  032%=      5-min Rain = 0
KDC1 231037Z 19001KT 15/M00 A2989 RMK A01 T01511003  RH  035%=      5-min Rain = 0
KDC1 231038Z 20001KT 15/M00 A2989 RMK A01 T01491003  RH  035%=      5-min Rain = 0
KDC1 231039Z 19001KT 15/M01 A2989 RMK A01 T01471008  RH  035%=      5-min Rain = 0
KDC1 231040Z 22001KT 15/M02 A2989 RMK A01 T01461020  RH  032%=      5-min Rain = 0
KDC1 231041Z 22001KT 15/M03 A2989 RMK A01 T01451025  RH  031%=      5-min Rain = 0
KDC1 231042Z 22001KT 15/M02 A2989 RMK A01 T01451019  RH  032%=      5-min Rain = 0
KDC1 231043Z 21001KT 14/M02 A2989 RMK A01 T01431017  RH  033%=      5-min Rain = 0
KDC1 231044Z 21000KT 14/M02 A2989 RMK A01 T01411015  RH  034%=      5-min Rain = 0
KDC1 231045Z 00000KT 14/M01 A2989 RMK A01 T01381011  RH  036%=      5-min Rain = 0
KDC1 231046Z 00000KT 14/M00 A2989 RMK A01 T01351004  RH  038%=      5-min Rain = 0
KDC1 231047Z 00000KT 13/M00 A2989 RMK A01 T01341003  RH  039%=      5-min Rain = 0
KDC1 231048Z 06001KT 13/M00 A2989 RMK A01 T01331002  RH  040%=      5-min Rain = 0
KDC1 231049Z 08001KT 13/M00 A2989 RMK A01 T01311002  RH  040%=      5-min Rain = 0
KDC1 231050Z 10002KT 13/M00 A2989 RMK A01 T01291003  RH  040%=      5-min Rain = 0
KDC1 231051Z 10002KT 13/M01 A2989 RMK A01 T01271005  RH  040%=      5-min Rain = 0
KDC1 231052Z 10002KT 13/M01 A2989 RMK A01 T01261006  RH  040%=      5-min Rain = 0
KDC1 231053Z 10002KT 13/M01 A2989 RMK A01 T01261007  RH  040%=      5-min Rain = 0
KDC1 231054Z 10001KT 13/M01 A2989 RMK A01 T01251007  RH  040%=      5-min Rain = 0
KDC1 231055Z 11000KT 13/M01 A2989 RMK A01 T01251007  RH  040%=      5-min Rain = 0
KDC1 231056Z 03000KT 12/M00 A2989 RMK A01 T01241003  RH  042%=      5-min Rain = 0
KDC1 231057Z 03001KT 12/00 A2989 RMK A01 T01220001  RH  043%=      5-min Rain = 0
KDC1 231058Z 03000KT 12/00 A2989 RMK A01 T01200000  RH  044%=      5-min Rain = 0
KDC1 231059Z 03001KT 12/00 A2989 RMK A01 T01180001  RH  045%=      5-min Rain = 0
KDC1 231100Z 03001KT 12/00 A2989 RMK A01 T01160001  RH  045%=      5-min Rain = 0
KDC1 231101Z 04002KT 11/00 A2989 RMK A01 T01140001  RH  046%=      5-min Rain = 0
KDC1 231102Z 04002KT 11/00 A2989 RMK A01 T01130002  RH  046%=      5-min Rain = 0
KDC1 231103Z 05001KT 11/00 A2989 RMK A01 T01120000  RH  046%=      5-min Rain = 0
KDC1 231104Z 00001KT 11/00 A2989 RMK A01 T011100-0  RH  046%=      5-min Rain = 0
KDC1 231105Z 36003KT 11/00 A2989 RMK A01 T011100-0  RH  046%=      5-min Rain = 0
KDC1 231106Z 02003KT 11/00 A2989 RMK A01 T01120003  RH  047%=      5-min Rain = 0
KDC1 231107Z 01005KT 11/00 A2989 RMK A01 T01110002  RH  047%=      5-min Rain = 0
KDC1 231108Z 02004KT 11/00 A2989 RMK A01 T01090002  RH  048%=      5-min Rain = 0
KDC1 231109Z 05004KT 11/00 A2989 RMK A01 T01070003  RH  048%=      5-min Rain = 0
KDC1 231110Z 05003KT 11/00 A2989 RMK A01 T01060002  RH  049%=      5-min Rain = 0
KDC1 231111Z 31001KT 11/00 A299 RMK A01 T01060001  RH  048%=      5-min Rain = 0
KDC1 231112Z 32002KT 11/00 A299 RMK A01 T010600-0  RH  048%=      5-min Rain = 0
KDC1 231113Z 03003KT 11/M00 A299 RMK A01 T01051002  RH  047%=      5-min Rain = 0
KDC1 231114Z 06005KT 11/M01 A299 RMK A01 T01051006  RH  046%=      5-min Rain = 0
KDC1 231115Z 06005KT 11/M01 A299 RMK A01 T01101010  RH  043%=      5-min Rain = 0
KDC1 231116Z 07003KT 11/M01 A299 RMK A01 T01141010  RH  042%=      5-min Rain = 0
KDC1 231117Z 18001KT 12/M01 A299 RMK A01 T01151012  RH  041%=      5-min Rain = 0
KDC1 231118Z 07002KT 12/M02 A299 RMK A01 T01181015  RH  040%=      5-min Rain = 0
KDC1 231119Z 07005KT 12/M02 A299 RMK A01 T01201015  RH  039%=      5-min Rain = 0
KDC1 231120Z 08005KT 12/M02 A299 RMK A01 T01231020  RH  037%=      5-min Rain = 0
KDC1 231121Z 08004KT 13/M02 A299 RMK A01 T01271021  RH  036%=      5-min Rain = 0
KDC1 231122Z 07004KT 13/M02 A299 RMK A01 T01281021  RH  035%=      5-min Rain = 0
KDC1 231123Z 08004KT 13/M02 A299 RMK A01 T01281019  RH  036%=      5-min Rain = 0
KDC1 231124Z 09003KT 13/M02 A299 RMK A01 T01271018  RH  037%=      5-min Rain = 0
KDC1 231125Z 09004KT 13/00 A299 RMK A01 T01250001  RH  043%=      5-min Rain = 0
KDC1 231126Z 10004KT 12/00 A299 RMK A01 T01210002  RH  044%=      5-min Rain = 0
KDC1 231127Z 10004KT 12/00 A299 RMK A01 T01180000  RH  044%=      5-min Rain = 0
KDC1 231128Z 10003KT 12/M02 A299 RMK A01 T01161016  RH  040%=      5-min Rain = 0
KDC1 231129Z 09003KT 12/M02 A299 RMK A01 T01171022  RH  038%=      5-min Rain = 0
KDC1 231130Z 10003KT 12/M02 A299 RMK A01 T01181021  RH  038%=      5-min Rain = 0
KDC1 231131Z 10004KT 12/M02 A299 RMK A01 T01191017  RH  039%=      5-min Rain = 0
KDC1 231132Z 09004KT 12/M01 A299 RMK A01 T01191014  RH  040%=      5-min Rain = 0
KDC1 231133Z 10004KT 12/M01 A299 RMK A01 T01191012  RH  040%=      5-min Rain = 0
KDC1 231134Z 09003KT 12/M00 A299 RMK A01 T01201002  RH  043%=      5-min Rain = 0
KDC1 231135Z 10003KT 12/00 A299 RMK A01 T01190001  RH  044%=      5-min Rain = 0
KDC1 231136Z 09002KT 12/00 A299 RMK A01 T01180000  RH  044%=      5-min Rain = 0
KDC1 231137Z 09003KT 12/00 A299 RMK A01 T01170002  RH  045%=      5-min Rain = 0
KDC1 231138Z 08003KT 12/M00 A299 RMK A01 T01171004  RH  043%=      5-min Rain = 0
KDC1 231139Z 09003KT 12/M00 A299 RMK A01 T01161001  RH  044%=      5-min Rain = 0
KDC1 231140Z 09003KT 12/M01 A299 RMK A01 T01151005  RH  043%=      5-min Rain = 0
KDC1 231141Z 10004KT 12/M02 A299 RMK A01 T01151015  RH  040%=      5-min Rain = 0
KDC1 231142Z 11005KT 12/M02 A299 RMK A01 T01151015  RH  040%=      5-min Rain = 0
KDC1 231143Z 11005KT 11/M01 A299 RMK A01 T01141011  RH  042%=      5-min Rain = 0
KDC1 231144Z 12004KT 11/M01 A2991 RMK A01 T01131008  RH  043%=      5-min Rain = 0
KDC1 231145Z 11004KT 11/M01 A2991 RMK A01 T01121008  RH  043%=      5-min Rain = 0
KDC1 231146Z 11003KT 11/M01 A2991 RMK A01 T01111014  RH  042%=      5-min Rain = 0
KDC1 231147Z 11004KT 11/M02 A2991 RMK A01 T01111018  RH  041%=      5-min Rain = 0
KDC1 231148Z 11005KT 11/M02 A2991 RMK A01 T01101018  RH  041%=      5-min Rain = 0
KDC1 231149Z 11005KT 11/M02 A2991 RMK A01 T01111016  RH  041%=      5-min Rain = 0
KDC1 231150Z 10005KT 11/M01 A2991 RMK A01 T01111012  RH  042%=      5-min Rain = 0
KDC1 231151Z 11005KT 11/M01 A2991 RMK A01 T01111009  RH  043%=      5-min Rain = 0
KDC1 231152Z 11004KT 11/M01 A2991 RMK A01 T01111008  RH  044%=      5-min Rain = 0
KDC1 231153Z 10004KT 11/M00 A2991 RMK A01 T01101002  RH  046%=      5-min Rain = 0
KDC1 231154Z 11004KT 11/M00 A2991 RMK A01 T01101002  RH  046%=      5-min Rain = 0
KDC1 231155Z 11004KT 11/00 A2991 RMK A01 T01090003  RH  048%=      5-min Rain = 0
KDC1 231156Z 10004KT 11/01 A2991 RMK A01 T01090006  RH  049%=      5-min Rain = 0
KDC1 231157Z 10004KT 11/00 A2991 RMK A01 T01080004  RH  048%=      5-min Rain = 0
KDC1 231158Z 11003KT 11/01 A2991 RMK A01 T01080005  RH  049%=      5-min Rain = 0
KDC1 231159Z 11003KT 11/00 A2991 RMK A01 T01080003  RH  048%=      5-min Rain = 0
KDC1 231200Z 12003KT 11/M00 A2991 RMK A01 T01081001  RH  047%=      5-min Rain = 0
KDC1 231201Z 11003KT 11/M01 A2991 RMK A01 T01091006  RH  045%=      5-min Rain = 0
KDC1 231202Z 10003KT 11/M01 A2991 RMK A01 T01101009  RH  044%=      5-min Rain = 0
KDC1 231203Z 10002KT 11/M01 A2991 RMK A01 T01111008  RH  044%=      5-min Rain = 0
KDC1 231204Z 10003KT 11/M00 A2992 RMK A01 T01111004  RH  045%=      5-min Rain = 0
KDC1 231205Z 09002KT 11/M01 A2992 RMK A01 T01121005  RH  044%=      5-min Rain = 0
KDC1 231206Z 09001KT 11/M00 A2992 RMK A01 T01121003  RH  045%=      5-min Rain = 0
KDC1 231207Z 10001KT 11/M01 A2992 RMK A01 T01121005  RH  044%=      5-min Rain = 0
KDC1 231208Z 09001KT 11/M02 A2992 RMK A01 T01111016  RH  041%=      5-min Rain = 0
KDC1 231209Z 10002KT 11/M02 A2992 RMK A01 T01071020  RH  041%=      5-min Rain = 0
KDC1 231210Z 10002KT 11/M02 A2992 RMK A01 T01061021  RH  041%=      5-min Rain = 0
KDC1 231211Z 10003KT 11/M02 A2992 RMK A01 T01061023  RH  041%=      5-min Rain = 0
KDC1 231212Z 10002KT 11/M02 A2992 RMK A01 T01071019  RH  041%=      5-min Rain = 0
KDC1 231213Z 09002KT 11/M01 A2992 RMK A01 T01071013  RH  043%=      5-min Rain = 0
KDC1 231214Z 08002KT 11/M01 A2992 RMK A01 T01081012  RH  043%=      5-min Rain = 0
KDC1 231215Z 08002KT 11/M03 A2992 RMK A01 T01091026  RH  039%=      5-min Rain = 0
KDC1 231216Z 06003KT 11/M03 A2992 RMK A01 T01111034  RH  036%=      5-min Rain = 0
KDC1 231217Z 06004KT 11/M03 A2992 RMK A01 T01121032  RH  036%=      5-min Rain = 0
KDC1 231218Z 07004KT 11/M03 A2992 RMK A01 T01121027  RH  038%=      5-min Rain = 0
KDC1 231219Z 07004KT 11/M02 A2992 RMK A01 T01111021  RH  040%=      5-min Rain = 0
KDC1 231220Z 05003KT 11/M02 A2993 RMK A01 T01101017  RH  041%=      5-min Rain = 0
KDC1 231221Z 03002KT 11/M02 A2993 RMK A01 T01091016  RH  042%=      5-min Rain = 0
KDC1 231222Z 04002KT 11/M02 A2993 RMK A01 T01071017  RH  042%=      5-min Rain = 0
KDC1 231223Z 06002KT 11/M02 A2993 RMK A01 T01051017  RH  042%=      5-min Rain = 0
KDC1 231224Z 07002KT 11/M02 A2993 RMK A01 T01051017  RH  043%=      5-min Rain = 0
KDC1 231225Z 05001KT 11/M02 A2993 RMK A01 T01051019  RH  042%=      5-min Rain = 0
KDC1 231226Z 03001KT 11/M02 A2993 RMK A01 T01051021  RH  041%=      5-min Rain = 0
KDC1 231227Z 05001KT 11/M02 A2993 RMK A01 T01061019  RH  042%=      5-min Rain = 0
KDC1 231228Z 09001KT 11/M02 A2993 RMK A01 T01061018  RH  042%=      5-min Rain = 0
KDC1 231229Z 10003KT 11/M02 A2993 RMK A01 T01071017  RH  042%=      5-min Rain = 0
KDC1 231230Z 09003KT 11/M02 A2993 RMK A01 T01081020  RH  041%=      5-min Rain = 0
KDC1 231231Z 09003KT 11/M02 A2993 RMK A01 T01101024  RH  039%=      5-min Rain = 0
KDC1 231232Z 08003KT 11/M03 A2993 RMK A01 T01131026  RH  038%=      5-min Rain = 0
KDC1 231233Z 07001KT 12/M02 A2993 RMK A01 T01151019  RH  039%=      5-min Rain = 0
KDC1 231234Z 08000KT 12/M01 A2994 RMK A01 T01151012  RH  041%=      5-min Rain = 0
KDC1 231235Z 24004KT 11/M01 A2994 RMK A01 T01131012  RH  042%=      5-min Rain = 0
KDC1 231236Z 24004KT 11/M01 A2994 RMK A01 T01111011  RH  043%=      5-min Rain = 0
KDC1 231237Z 17002KT 11/M02 A2994 RMK A01 T01101021  RH  040%=      5-min Rain = 0
KDC1 231238Z 13002KT 11/M02 A2994 RMK A01 T01121019  RH  040%=      5-min Rain = 0
KDC1 231239Z 15002KT 11/M01 A2994 RMK A01 T01141010  RH  042%=      5-min Rain = 0
KDC1 231240Z 20002KT 12/M01 A2994 RMK A01 T01151010  RH  042%=      5-min Rain = 0
KDC1 231241Z 21003KT 12/M01 A2994 RMK A01 T01161014  RH  040%=      5-min Rain = 0
KDC1 231242Z 18003KT 12/M02 A2994 RMK A01 T01171022  RH  038%=      5-min Rain = 0
KDC1 231243Z 15003KT 12/M03 A2994 RMK A01 T01191027  RH  036%=      5-min Rain = 0
KDC1 231244Z 14005KT 12/M03 A2994 RMK A01 T01221028  RH  035%=      5-min Rain = 0
KDC1 231245Z 14005KT 12/M03 A2994 RMK A01 T01241025  RH  035%=      5-min Rain = 0
KDC1 231246Z 14005KT 13/M02 A2994 RMK A01 T01261024  RH  035%=      5-min Rain = 0
KDC1 231247Z 14005KT 13/M02 A2994 RMK A01 T01281023  RH  035%=      5-min Rain = 0
KDC1 231248Z 14005KT 13/M01 A2994 RMK A01 T01291012  RH  038%=      5-min Rain = 0
KDC1 231249Z 15005KT 13/M00 A2994 RMK A01 T01291001  RH  041%=      5-min Rain = 0
KDC1 231250Z 14004KT 13/M00 A2994 RMK A01 T01301003  RH  040%=      5-min Rain = 0
KDC1 231251Z 16003KT 13/M01 A2994 RMK A01 T01321008  RH  038%=      5-min Rain = 0
KDC1 231252Z 20001KT 13/M02 A2994 RMK A01 T01331018  RH  035%=      5-min Rain = 0
KDC1 231253Z 20002KT 13/M02 A2994 RMK A01 T01341016  RH  035%=      5-min Rain = 0
KDC1 231254Z 21001KT 14/M01 A2994 RMK A01 T01351010  RH  037%=      5-min Rain = 0
KDC1 231255Z 12001KT 14/M02 A2994 RMK A01 T01351020  RH  034%=      5-min Rain = 0
KDC1 231256Z 11002KT 14/M03 A2994 RMK A01 T01371025  RH  033%=      5-min Rain = 0
KDC1 231257Z 13001KT 14/M04 A2994 RMK A01 T01391036  RH  030%=      5-min Rain = 0
KDC1 231258Z 11001KT 14/M04 A2994 RMK A01 T01421037  RH  029%=      5-min Rain = 0
KDC1 231259Z 21000KT 14/M03 A2994 RMK A01 T01441032  RH  030%=      5-min Rain = 0
KDC1 231300Z 22001KT 15/M04 A2994 RMK A01 T01451035  RH  029%=      5-min Rain = 0
KDC1 231301Z 00000KT 15/M04 A2994 RMK A01 T01461036  RH  028%=      5-min Rain = 0
KDC1 231302Z 16000KT 15/M04 A2994 RMK A01 T01481036  RH  028%=      5-min Rain = 0
KDC1 231303Z 16000KT 15/M03 A2994 RMK A01 T01501034  RH  028%=      5-min Rain = 0
KDC1 231304Z 00000KT 15/M04 A2994 RMK A01 T01541036  RH  027%=      5-min Rain = 0
KDC1 231305Z 29000KT 16/M04 A2994 RMK A01 T01561039  RH  026%=      5-min Rain = 0
KDC1 231306Z 28003KT 16/M02 A2995 RMK A01 T01551020  RH  030%=      5-min Rain = 0
KDC1 231307Z 27004KT 15/00 A2995 RMK A01 T01500004  RH  037%=      5-min Rain = 0
KDC1 231308Z 27002KT 15/00 A2995 RMK A01 T014500-0  RH  037%=      5-min Rain = 0
KDC1 231309Z 28002KT 14/M00 A2995 RMK A01 T01431002  RH  037%=      5-min Rain = 0
KDC1 231310Z 28003KT 14/01 A2995 RMK A01 T01420005  RH  039%=      5-min Rain = 0
KDC1 231311Z 28004KT 14/01 A2995 RMK A01 T01400009  RH  041%=      5-min Rain = 0
KDC1 231312Z 28004KT 14/01 A2995 RMK A01 T01390009  RH  041%=      5-min Rain = 0
KDC1 231313Z 26002KT 14/01 A2995 RMK A01 T01390008  RH  041%=      5-min Rain = 0
KDC1 231314Z 22001KT 14/01 A2995 RMK A01 T01390005  RH  040%=      5-min Rain = 0
KDC1 231315Z 18002KT 14/M00 A2995 RMK A01 T01401001  RH  038%=      5-min Rain = 0
KDC1 231316Z 18000KT 14/M00 A2995 RMK A01 T01421004  RH  037%=      5-min Rain = 0
KDC1 231317Z 00000KT 15/00 A2995 RMK A01 T014600-0  RH  037%=      5-min Rain = 0
KDC1 231318Z 34001KT 15/M00 A2995 RMK A01 T01491004  RH  035%=      5-min Rain = 0
KDC1 231319Z 32002KT 15/01 A2995 RMK A01 T01520005  RH  037%=      5-min Rain = 0
KDC1 231320Z 30001KT 15/02 A2995 RMK A01 T01510018  RH  040%=      5-min Rain = 0
KDC1 231321Z 26000KT 15/02 A2995 RMK A01 T01500020  RH  041%=      5-min Rain = 0
KDC1 231322Z 00000KT 15/02 A2995 RMK A01 T01490021  RH  042%=      5-min Rain = 0
KDC1 231323Z 00000KT 15/02 A2995 RMK A01 T01500022  RH  042%=      5-min Rain = 0
KDC1 231324Z 00000KT 15/02 A2995 RMK A01 T01520019  RH  041%=      5-min Rain = 0
KDC1 231325Z 02000KT 15/02 A2995 RMK A01 T01540016  RH  039%=      5-min Rain = 0
KDC1 231326Z 32000KT 16/01 A2995 RMK A01 T01560013  RH  038%=      5-min Rain = 0
KDC1 231327Z 32002KT 16/01 A2995 RMK A01 T01570014  RH  038%=      5-min Rain = 0
KDC1 231328Z 32002KT 16/01 A2995 RMK A01 T01570014  RH  038%=      5-min Rain = 0
KDC1 231329Z 32001KT 16/01 A2995 RMK A01 T01560010  RH  037%=      5-min Rain = 0
KDC1 231330Z 32002KT 16/01 A2996 RMK A01 T01570009  RH  037%=      5-min Rain = 0
KDC1 231331Z 34002KT 16/03 A2996 RMK A01 T01580033  RH  043%=      5-min Rain = 0
KDC1 231332Z 33002KT 16/02 A2996 RMK A01 T01560019  RH  039%=      5-min Rain = 0
KDC1 231333Z 35000KT 16/00 A2996 RMK A01 T01550000  RH  035%=      5-min Rain = 0
KDC1 231334Z 00000KT 16/M01 A2996 RMK A01 T01551009  RH  032%=      5-min Rain = 0
KDC1 231335Z 11000KT 16/00 A2996 RMK A01 T015700-0  RH  034%=      5-min Rain = 0
KDC1 231336Z 15001KT 16/01 A2996 RMK A01 T01610007  RH  035%=      5-min Rain = 0
KDC1 231337Z 19001KT 16/01 A2996 RMK A01 T01620007  RH  035%=      5-min Rain = 0
KDC1 231338Z 28001KT 16/01 A2996 RMK A01 T01630006  RH  035%=      5-min Rain = 0
KDC1 231339Z 29001KT 16/00 A2996 RMK A01 T01640003  RH  033%=      5-min Rain = 0
KDC1 231340Z 29001KT 17/01 A2996 RMK A01 T01650005  RH  034%=      5-min Rain = 0
KDC1 231341Z 31002KT 17/02 A2996 RMK A01 T01650024  RH  039%=      5-min Rain = 0
KDC1 231342Z 33001KT 16/02 A2996 RMK A01 T01640020  RH  038%=      5-min Rain = 0
KDC1 231343Z 31000KT 16/02 A2996 RMK A01 T01630015  RH  037%=      5-min Rain = 0
KDC1 231344Z 00000KT 16/01 A2996 RMK A01 T01640014  RH  036%=      5-min Rain = 0
KDC1 231345Z 00000KT 17/01 A2996 RMK A01 T01660014  RH  036%=      5-min Rain = 0
KDC1 231346Z 00000KT 17/01 A2996 RMK A01 T01680013  RH  035%=      5-min Rain = 0
KDC1 231347Z 00000KT 17/01 A2996 RMK A01 T01690013  RH  035%=      5-min Rain = 0
KDC1 231348Z 00000KT 17/01 A2996 RMK A01 T01710012  RH  034%=      5-min Rain = 0
KDC1 231349Z 00000KT 17/01 A2996 RMK A01 T01730011  RH  033%=      5-min Rain = 0
KDC1 231350Z 36000KT 18/01 A2996 RMK A01 T01750009  RH  033%=      5-min Rain = 0
KDC1 231351Z 34001KT 18/01 A2996 RMK A01 T01780007  RH  032%=      5-min Rain = 0
KDC1 231352Z 34000KT 18/00 A2996 RMK A01 T01800003  RH  030%=      5-min Rain = 0
KDC1 231353Z 28001KT 18/01 A2996 RMK A01 T01810009  RH  032%=      5-min Rain = 0
KDC1 231354Z 28001KT 18/03 A2996 RMK A01 T01810027  RH  036%=      5-min Rain = 0
KDC1 231355Z 25001KT 18/04 A2996 RMK A01 T01810038  RH  039%=      5-min Rain = 0
KDC1 231356Z 19001KT 18/04 A2996 RMK A01 T01800037  RH  039%=      5-min Rain = 0
KDC1 231357Z 18002KT 18/04 A2996 RMK A01 T01800035  RH  038%=      5-min Rain = 0
KDC1 231358Z 20002KT 18/04 A2996 RMK A01 T01820036  RH  038%=      5-min Rain = 0
KDC1 231359Z 19002KT 18/04 A2996 RMK A01 T01830039  RH  038%=      5-min Rain = 0
KDC1 231400Z 19002KT 18/03 A2996 RMK A01 T01840032  RH  036%=      5-min Rain = 0
KDC1 231401Z 19002KT 18/03 A2996 RMK A01 T01830029  RH  036%=      5-min Rain = 0
KDC1 231402Z 15001KT 18/03 A2996 RMK A01 T01830033  RH  037%=      5-min Rain = 0
KDC1 231403Z 15002KT 18/04 A2997 RMK A01 T01840037  RH  037%=      5-min Rain = 0
KDC1 231404Z 14001KT 19/04 A2997 RMK A01 T01860036  RH  037%=      5-min Rain = 0
KDC1 231405Z 12001KT 19/04 A2997 RMK A01 T01880039  RH  037%=      5-min Rain = 0
KDC1 231406Z 09001KT 19/04 A2997 RMK A01 T01890041  RH  037%=      5-min Rain = 0
KDC1 231407Z 07000KT 19/04 A2997 RMK A01 T01910043  RH  038%=      5-min Rain = 0
KDC1 231408Z 07001KT 19/04 A2997 RMK A01 T01930044  RH  037%=      5-min Rain = 0
KDC1 231409Z 10001KT 20/04 A2997 RMK A01 T01950044  RH  037%=      5-min Rain = 0
KDC1 231410Z 09000KT 20/04 A2997 RMK A01 T01970043  RH  036%=      5-min Rain = 0
KDC1 231411Z 09001KT 20/04 A2997 RMK A01 T01970042  RH  036%=      5-min Rain = 0
KDC1 231412Z 08001KT 20/04 A2997 RMK A01 T01980042  RH  036%=      5-min Rain = 0
KDC1 231413Z 10001KT 20/04 A2997 RMK A01 T01990044  RH  036%=      5-min Rain = 0
KDC1 231414Z 11001KT 20/04 A2997 RMK A01 T01990044  RH  036%=      5-min Rain = 0
KDC1 231415Z 14001KT 20/04 A2997 RMK A01 T02010041  RH  035%=      5-min Rain = 0
KDC1 231416Z 19000KT 20/04 A2997 RMK A01 T02030041  RH  034%=      5-min Rain = 0
KDC1 231417Z 18001KT 20/04 A2997 RMK A01 T02040040  RH  034%=      5-min Rain = 0
KDC1 231418Z 19001KT 21/04 A2997 RMK A01 T02050044  RH  035%=      5-min Rain = 0
KDC1 231419Z 22000KT 21/05 A2997 RMK A01 T02070046  RH  035%=      5-min Rain = 0
KDC1 231420Z 00000KT 21/05 A2997 RMK A01 T02070051  RH  036%=      5-min Rain = 0
KDC1 231421Z 18000KT 21/05 A2997 RMK A01 T02090052  RH  036%=      5-min Rain = 0
KDC1 231422Z 15000KT 21/05 A2997 RMK A01 T02100051  RH  035%=      5-min Rain = 0
KDC1 231423Z 17000KT 21/05 A2996 RMK A01 T02110053  RH  035%=      5-min Rain = 0
KDC1 231424Z 17001KT 21/05 A2996 RMK A01 T02130052  RH  035%=      5-min Rain = 0
KDC1 231425Z 19001KT 21/05 A2997 RMK A01 T02140050  RH  034%=      5-min Rain = 0
KDC1 231426Z 19001KT 22/05 A2997 RMK A01 T02150048  RH  034%=      5-min Rain = 0
KDC1 231427Z 18001KT 22/05 A2997 RMK A01 T02160048  RH  033%=      5-min Rain = 0
KDC1 231428Z 17000KT 22/05 A2997 RMK A01 T02190046  RH  032%=      5-min Rain = 0
KDC1 231429Z 16000KT 22/04 A2996 RMK A01 T02210039  RH  030%=      5-min Rain = 0
KDC1 231430Z 17000KT 22/04 A2997 RMK A01 T02230036  RH  029%=      5-min Rain = 0
KDC1 231431Z 15001KT 23/04 A2997 RMK A01 T02260037  RH  029%=      5-min Rain = 0
KDC1 231432Z 16001KT 23/04 A2997 RMK A01 T02290040  RH  029%=      5-min Rain = 0
KDC1 231433Z 15001KT 23/04 A2997 RMK A01 T02300044  RH  030%=      5-min Rain = 0
KDC1 231434Z 17001KT 23/04 A2997 RMK A01 T02310035  RH  028%=      5-min Rain = 0
KDC1 231435Z 17000KT 23/04 A2997 RMK A01 T02310037  RH  028%=      5-min Rain = 0
KDC1 231436Z 16001KT 23/05 A2997 RMK A01 T02320050  RH  031%=      5-min Rain = 0
KDC1 231437Z 14001KT 23/05 A2997 RMK A01 T02320054  RH  032%=      5-min Rain = 0
KDC1 231438Z 12001KT 23/06 A2997 RMK A01 T02330057  RH  032%=      5-min Rain = 0
KDC1 231439Z 12001KT 23/06 A2997 RMK A01 T02340060  RH  032%=      5-min Rain = 0
KDC1 231440Z 10002KT 24/06 A2997 RMK A01 T02360058  RH  032%=      5-min Rain = 0
KDC1 231441Z 10002KT 24/05 A2997 RMK A01 T02350049  RH  030%=      5-min Rain = 0
KDC1 231442Z 11002KT 23/04 A2997 RMK A01 T02330039  RH  028%=      5-min Rain = 0
KDC1 231443Z 11002KT 23/03 A2997 RMK A01 T02310030  RH  027%=      5-min Rain = 0
KDC1 231444Z 12003KT 23/02 A2997 RMK A01 T02310017  RH  024%=      5-min Rain = 0
KDC1 231445Z 10003KT 23/03 A2997 RMK A01 T02320028  RH  026%=      5-min Rain = 0
KDC1 231446Z 10003KT 23/04 A2997 RMK A01 T02320041  RH  029%=      5-min Rain = 0
KDC1 231447Z 12003KT 23/06 A2997 RMK A01 T02320055  RH  032%=      5-min Rain = 0
KDC1 231448Z 11003KT 23/07 A2997 RMK A01 T02320070  RH  035%=      5-min Rain = 0
KDC1 231449Z 11004KT 23/06 A2997 RMK A01 T02310062  RH  034%=      5-min Rain = 0
KDC1 231450Z 12003KT 23/06 A2997 RMK A01 T02300058  RH  033%=      5-min Rain = 0
KDC1 231451Z 13003KT 23/05 A2997 RMK A01 T02300054  RH  032%=      5-min Rain = 0
KDC1 231452Z 13003KT 23/05 A2997 RMK A01 T02290047  RH  031%=      5-min Rain = 0
KDC1 231453Z 13003KT 23/04 A2997 RMK A01 T02300040  RH  029%=      5-min Rain = 0
KDC1 231454Z 12002KT 23/05 A2997 RMK A01 T02300047  RH  031%=      5-min Rain = 0
KDC1 231455Z 13003KT 23/05 A2997 RMK A01 T02310053  RH  032%=      5-min Rain = 0
KDC1 231456Z 14002KT 23/05 A2997 RMK A01 T02310045  RH  030%=      5-min Rain = 0
KDC1 231457Z 14002KT 23/05 A2997 RMK A01 T02320045  RH  030%=      5-min Rain = 0
KDC1 231458Z 16002KT 23/05 A2997 RMK A01 T02320048  RH  030%=      5-min Rain = 0
KDC1 231459Z 15002KT 23/05 A2997 RMK A01 T02340049  RH  030%=      5-min Rain = 0
KDC1 231500Z 16002KT 24/05 A2997 RMK A01 T02360050  RH  030%=      5-min Rain = 0
KDC1 231501Z 15002KT 24/05 A2997 RMK A01 T02390045  RH  028%=      5-min Rain = 0
KDC1 231502Z 15002KT 24/04 A2997 RMK A01 T02430043  RH  027%=      5-min Rain = 0
KDC1 231503Z 17002KT 24/04 A2997 RMK A01 T02430043  RH  027%=      5-min Rain = 0
KDC1 231504Z 13002KT 24/05 A2997 RMK A01 T02440052  RH  029%=      5-min Rain = 0
KDC1 231505Z 14003KT 25/05 A2997 RMK A01 T02460049  RH  028%=      5-min Rain = 0
KDC1 231506Z 13002KT 25/05 A2997 RMK A01 T02480045  RH  027%=      5-min Rain = 0
KDC1 231507Z 12002KT 25/04 A2997 RMK A01 T02490037  RH  025%=      5-min Rain = 0
KDC1 231508Z 13003KT 25/04 A2997 RMK A01 T02500038  RH  025%=      5-min Rain = 0
KDC1 231509Z 13003KT 25/04 A2997 RMK A01 T02500037  RH  025%=      5-min Rain = 0
KDC1 231510Z 13004KT 25/03 A2997 RMK A01 T02520026  RH  023%=      5-min Rain = 0
KDC1 231511Z 12003KT 25/03 A2997 RMK A01 T02520030  RH  024%=      5-min Rain = 0
KDC1 231512Z 13003KT 25/02 A2997 RMK A01 T02520020  RH  022%=      5-min Rain = 0
KDC1 231513Z 12004KT 25/03 A2997 RMK A01 T02520025  RH  023%=      5-min Rain = 0
KDC1 231514Z 12004KT 25/02 A2997 RMK A01 T02530020  RH  022%=      5-min Rain = 0
KDC1 231515Z 11004KT 25/02 A2997 RMK A01 T02520019  RH  022%=      5-min Rain = 0
KDC1 231516Z 11004KT 25/02 A2997 RMK A01 T02520015  RH  021%=      5-min Rain = 0
KDC1 231517Z 11004KT 25/02 A2997 RMK A01 T02520018  RH  022%=      5-min Rain = 0
KDC1 231518Z 12003KT 25/02 A2997 RMK A01 T02510016  RH  022%=      5-min Rain = 0
KDC1 231519Z 11003KT 25/03 A2997 RMK A01 T02520026  RH  023%=      5-min Rain = 0
KDC1 231520Z 10003KT 25/02 A2997 RMK A01 T02530022  RH  022%=      5-min Rain = 0
KDC1 231521Z 12003KT 25/03 A2996 RMK A01 T02540029  RH  023%=      5-min Rain = 0
KDC1 231522Z 11003KT 26/03 A2996 RMK A01 T02550031  RH  023%=      5-min Rain = 0
KDC1 231523Z 12004KT 26/02 A2996 RMK A01 T02560019  RH  021%=      5-min Rain = 0
KDC1 231524Z 12003KT 26/02 A2996 RMK A01 T02580018  RH  021%=      5-min Rain = 0
KDC1 231525Z 12003KT 26/01 A2996 RMK A01 T02600010  RH  020%=      5-min Rain = 0
KDC1 231526Z 12003KT 26/02 A2996 RMK A01 T02590023  RH  022%=      5-min Rain = 0
KDC1 231527Z 13003KT 26/02 A2996 RMK A01 T02580020  RH  021%=      5-min Rain = 0
KDC1 231528Z 13003KT 26/03 A2996 RMK A01 T02570025  RH  022%=      5-min Rain = 0
KDC1 231529Z 14002KT 26/01 A2996 RMK A01 T02590012  RH  020%=      5-min Rain = 0
KDC1 231530Z 13002KT 26/03 A2996 RMK A01 T02600025  RH  022%=      5-min Rain = 0
KDC1 231531Z 13002KT 26/01 A2996 RMK A01 T02620011  RH  019%=      5-min Rain = 0
KDC1 231532Z 14002KT 26/02 A2996 RMK A01 T02630016  RH  020%=      5-min Rain = 0
KDC1 231533Z 14002KT 27/00 A2996 RMK A01 T02650002  RH  018%=      5-min Rain = 0
KDC1 231534Z 14002KT 27/01 A2996 RMK A01 T02650011  RH  019%=      5-min Rain = 0
KDC1 231535Z 14002KT 27/02 A2996 RMK A01 T02670019  RH  020%=      5-min Rain = 0
KDC1 231536Z 14002KT 27/01 A2996 RMK A01 T02680007  RH  018%=      5-min Rain = 0
KDC1 231537Z 14001KT 27/M02 A2996 RMK A01 T02691016  RH  015%=      5-min Rain = 0
KDC1 231538Z 17000KT 27/M02 A2996 RMK A01 T02701020  RH  015%=      5-min Rain = 0
KDC1 231539Z 15000KT 27/M01 A2996 RMK A01 T02711007  RH  016%=      5-min Rain = 0
KDC1 231540Z 16001KT 27/00 A2996 RMK A01 T02730003  RH  017%=      5-min Rain = 0
KDC1 231541Z 15001KT 27/M01 A2996 RMK A01 T02741013  RH  015%=      5-min Rain = 0
KDC1 231542Z 14000KT 27/M03 A2996 RMK A01 T02741031  RH  013%=      5-min Rain = 0
KDC1 231543Z 09001KT 28/M02 A2996 RMK A01 T02751019  RH  015%=      5-min Rain = 0
KDC1 231544Z 09001KT 28/M02 A2996 RMK A01 T02781020  RH  014%=      5-min Rain = 0
KDC1 231545Z 08002KT 28/M03 A2996 RMK A01 T02801029  RH  013%=      5-min Rain = 0
KDC1 231546Z 07002KT 28/M04 A2996 RMK A01 T02791035  RH  013%=      5-min Rain = 0
KDC1 231547Z 07001KT 28/M04 A2996 RMK A01 T02781037  RH  012%=      5-min Rain = 0
KDC1 231548Z 11000KT 28/M04 A2996 RMK A01 T02781041  RH  012%=      5-min Rain = 0
KDC1 231549Z 00000KT 28/M05 A2996 RMK A01 T02781048  RH  011%=      5-min Rain = 0
KDC1 231550Z 00000KT 28/M04 A2996 RMK A01 T02791040  RH  012%=      5-min Rain = 0
KDC1 231551Z 12000KT 28/M04 A2996 RMK A01 T02811040  RH  012%=      5-min Rain = 0
KDC1 231552Z 07001KT 28/M04 A2996 RMK A01 T02821036  RH  012%=      5-min Rain = 0
KDC1 231553Z 10000KT 28/M04 A2996 RMK A01 T02841035  RH  012%=      5-min Rain = 0
KDC1 231554Z 03002KT 29/M04 A2996 RMK A01 T02861036  RH  012%=      5-min Rain = 0
KDC1 231555Z 03002KT 29/M04 A2996 RMK A01 T02861043  RH  011%=      5-min Rain = 0
KDC1 231556Z 06003KT 29/M04 A2995 RMK A01 T02861040  RH  012%=      5-min Rain = 0
KDC1 231557Z 07005KT 29/M04 A2995 RMK A01 T02851044  RH  011%=      5-min Rain = 0
KDC1 231558Z 07005KT 28/M05 A2995 RMK A01 T02831047  RH  011%=      5-min Rain = 0
KDC1 231559Z 07004KT 28/M05 A2995 RMK A01 T02791048  RH  011%=      5-min Rain = 0
KDC1 231600Z 04002KT 28/M05 A2995 RMK A01 T02751048  RH  012%=      5-min Rain = 0
KDC1 231601Z 34002KT 27/M05 A2995 RMK A01 T02731045  RH  012%=      5-min Rain = 0
KDC1 231602Z 09001KT 27/M04 A2995 RMK A01 T02731044  RH  012%=      5-min Rain = 0
KDC1 231603Z 12000KT 27/M05 A2995 RMK A01 T02741045  RH  012%=      5-min Rain = 0
KDC1 231604Z 14001KT 28/M05 A2995 RMK A01 T02761045  RH  012%=      5-min Rain = 0
KDC1 231605Z 12002KT 28/M05 A2995 RMK A01 T02771045  RH  012%=      5-min Rain = 0
KDC1 231606Z 08002KT 28/M05 A2995 RMK A01 T02771045  RH  012%=      5-min Rain = 0
KDC1 231607Z 04005KT 28/M04 A2995 RMK A01 T02791039  RH  012%=      5-min Rain = 0
KDC1 231608Z 36005KT 28/M04 A2995 RMK A01 T02821035  RH  012%=      5-min Rain = 0
KDC1 231609Z 03005KT 28/M04 A2995 RMK A01 T02801035  RH  012%=      5-min Rain = 0
KDC1 231610Z 04004KT 28/M04 A2995 RMK A01 T02801039  RH  012%=      5-min Rain = 0
KDC1 231611Z 03001KT 28/M04 A2995 RMK A01 T02791040  RH  012%=      5-min Rain = 0
KDC1 231612Z 04002KT 28/M04 A2995 RMK A01 T02791039  RH  012%=      5-min Rain = 0
KDC1 231613Z 05003KT 28/M04 A2995 RMK A01 T02791039  RH  012%=      5-min Rain = 0
KDC1 231614Z 03005KT 28/M04 A2995 RMK A01 T02781036  RH  013%=      5-min Rain = 0
KDC1 231615Z 35007KT 28/M03 A2995 RMK A01 T02791030  RH  013%=      5-min Rain = 0
KDC1 231616Z 34008KT 28/M04 A2995 RMK A01 T02811036  RH  012%=      5-min Rain = 0
KDC1 231617Z 32006KT 28/M04 A2995 RMK A01 T02821038  RH  012%=      5-min Rain = 0
KDC1 231618Z 33006KT 28/M04 A2995 RMK A01 T02831041  RH  012%=      5-min Rain = 0
KDC1 231619Z 32005KT 28/M04 A2995 RMK A01 T02831040  RH  012%=      5-min Rain = 0
KDC1 231620Z 33004KT 28/M04 A2995 RMK A01 T02831041  RH  012%=      5-min Rain = 0
KDC1 231621Z 33004KT 28/M04 A2994 RMK A01 T02821039  RH  012%=      5-min Rain = 0
KDC1 231622Z 32004KT 28/M04 A2994 RMK A01 T02831041  RH  012%=      5-min Rain = 0
KDC1 231623Z 31007KT 28/M04 A2994 RMK A01 T02821038  RH  012%=      5-min Rain = 0
KDC1 231624Z 28005KT 28/M04 A2994 RMK A01 T02831036  RH  012%=      5-min Rain = 0
KDC1 231625Z 27005KT 29/M04 A2994 RMK A01 T02851036  RH  012%=      5-min Rain = 0
KDC1 231626Z 26005KT 29/M04 A2994 RMK A01 T02851038  RH  012%=      5-min Rain = 0
KDC1 231627Z 27004KT 28/M04 A2994 RMK A01 T02841037  RH  012%=      5-min Rain = 0
KDC1 231628Z 27005KT 29/M03 A2994 RMK A01 T02851032  RH  012%=      5-min Rain = 0
KDC1 231629Z 27005KT 29/M03 A2994 RMK A01 T02851025  RH  013%=      5-min Rain = 0
KDC1 231630Z 27006KT 29/M03 A2994 RMK A01 T02851031  RH  013%=      5-min Rain = 0
KDC1 231631Z 26006KT 29/M04 A2994 RMK A01 T02861040  RH  012%=      5-min Rain = 0
KDC1 231632Z 24005KT 29/M04 A2994 RMK A01 T02901036  RH  012%=      5-min Rain = 0
KDC1 231633Z 23005KT 29/M02 A2994 RMK A01 T02891020  RH  013%=      5-min Rain = 0
KDC1 231634Z 25005KT 29/M00 A2994 RMK A01 T02901004  RH  015%=      5-min Rain = 0
KDC1 231635Z 25006KT 29/01 A2994 RMK A01 T02930008  RH  016%=      5-min Rain = 0
KDC1 231636Z 26007KT 29/01 A2994 RMK A01 T02930008  RH  016%=      5-min Rain = 0
KDC1 231637Z 25007KT 29/01 A2994 RMK A01 T02910009  RH  016%=      5-min Rain = 0
KDC1 231638Z 26006KT 29/01 A2994 RMK A01 T02890006  RH  016%=      5-min Rain = 0
KDC1 231639Z 24007KT 29/00 A2994 RMK A01 T02860000  RH  016%=      5-min Rain = 0
KDC1 231640Z 25007KT 29/M03 A2994 RMK A01 T02871031  RH  012%=      5-min Rain = 0
KDC1 231641Z 27005KT 29/M04 A2994 RMK A01 T02881036  RH  012%=      5-min Rain = 0
KDC1 231642Z 25005KT 29/M04 A2994 RMK A01 T02911038  RH  011%=      5-min Rain = 0
KDC1 231643Z 25005KT 29/M04 A2994 RMK A01 T02921039  RH  011%=      5-min Rain = 0
KDC1 231644Z 23004KT 29/M02 A2994 RMK A01 T02921021  RH  013%=      5-min Rain = 0
KDC1 231645Z 24005KT 29/M02 A2994 RMK A01 T02911022  RH  013%=      5-min Rain = 0
KDC1 231646Z 24006KT 29/M01 A2994 RMK A01 T02921006  RH  014%=      5-min Rain = 0
KDC1 231647Z 25007KT 29/00 A2994 RMK A01 T02930004  RH  016%=      5-min Rain = 0
KDC1 231648Z 26011KT 29/M01 A2994 RMK A01 T02941008  RH  014%=      5-min Rain = 0
KDC1 231649Z 25011KT 30/M03 A2994 RMK A01 T02981029  RH  012%=      5-min Rain = 0
KDC1 231650Z 25011KT 30/M03 A2994 RMK A01 T02971032  RH  012%=      5-min Rain = 0
KDC1 231651Z 25008KT 29/M03 A2994 RMK A01 T02941030  RH  012%=      5-min Rain = 0
KDC1 231652Z 25007KT 29/M03 A2994 RMK A01 T02941029  RH  012%=      5-min Rain = 0
KDC1 231653Z 25008KT 29/M04 A2994 RMK A01 T02941040  RH  011%=      5-min Rain = 0
KDC1 231654Z 27006KT 29/M04 A2994 RMK A01 T02931041  RH  011%=      5-min Rain = 0
KDC1 231655Z 27007KT 29/M04 A2994 RMK A01 T02941043  RH  011%=      5-min Rain = 0
KDC1 231656Z 25006KT 30/M05 A2994 RMK A01 T02961045  RH  011%=      5-min Rain = 0
KDC1 231657Z 26007KT 30/M04 A2994 RMK A01 T02981044  RH  011%=      5-min Rain = 0
KDC1 231658Z 25005KT 30/M05 A2994 RMK A01 T02991047  RH  010%=      5-min Rain = 0
KDC1 231659Z 24005KT 30/M05 A2994 RMK A01 T02991050  RH  010%=      5-min Rain = 0
KDC1 231700Z 25005KT 30/M05 A2994 RMK A01 T02971050  RH  010%=      5-min Rain = 0
KDC1 231701Z 27009G14KT 30/M04 A2994 RMK A01 T02951037  RH  011%=      5-min Rain = 0
KDC1 231702Z 28009KT 30/M04 A2994 RMK A01 T02961043  RH  011%=      5-min Rain = 0
KDC1 231703Z 25009KT 30/M04 A2994 RMK A01 T02981042  RH  011%=      5-min Rain = 0
KDC1 231704Z 25008KT 30/M01 A2994 RMK A01 T02981008  RH  014%=      5-min Rain = 0
KDC1 231705Z 25010KT 30/M02 A2994 RMK A01 T02961023  RH  012%=      5-min Rain = 0
KDC1 231706Z 26009KT 29/M02 A2994 RMK A01 T02941020  RH  013%=      5-min Rain = 0
KDC1 231707Z 26013KT 30/M03 A2994 RMK A01 T02961030  RH  012%=      5-min Rain = 0
KDC1 231708Z 25010KT 30/M05 A2994 RMK A01 T02991045  RH  010%=      5-min Rain = 0
KDC1 231709Z 25010KT 30/M05 A2994 RMK A01 T02971045  RH  011%=      5-min Rain = 0
KDC1 231710Z 26007KT 30/M04 A2994 RMK A01 T02961039  RH  011%=      5-min Rain = 0
KDC1 231711Z 24008KT 30/M04 A2994 RMK A01 T02971036  RH  011%=      5-min Rain = 0
KDC1 231712Z 24005KT 30/M04 A2993 RMK A01 T02981044  RH  011%=      5-min Rain = 0
KDC1 231713Z 26003KT 30/M05 A2993 RMK A01 T02971047  RH  010%=      5-min Rain = 0
KDC1 231714Z 29004KT 30/M05 A2993 RMK A01 T02981045  RH  010%=      5-min Rain = 0
KDC1 231715Z 27006KT 30/M04 A2993 RMK A01 T02971037  RH  011%=      5-min Rain = 0
KDC1 231716Z 27006KT 30/M04 A2993 RMK A01 T02981041  RH  011%=      5-min Rain = 0
KDC1 231717Z 26006KT 30/M05 A2993 RMK A01 T02991048  RH  010%=      5-min Rain = 0
KDC1 231718Z 28006KT 30/M05 A2993 RMK A01 T02981051  RH  010%=      5-min Rain = 0
KDC1 231719Z 29011KT 30/M04 A2993 RMK A01 T03001037  RH  011%=      5-min Rain = 0
KDC1 231720Z 29011KT 30/M04 A2993 RMK A01 T03011043  RH  010%=      5-min Rain = 0
KDC1 231721Z 29007KT 30/M05 A2993 RMK A01 T02991052  RH  010%=      5-min Rain = 0
KDC1 231722Z 29006KT 30/M05 A2993 RMK A01 T02981051  RH  010%=      5-min Rain = 0
KDC1 231723Z 29006KT 30/M05 A2992 RMK A01 T02981048  RH  010%=      5-min Rain = 0
KDC1 231724Z 27011G16KT 30/M05 A2992 RMK A01 T02991045  RH  010%=      5-min Rain = 0
KDC1 231725Z 25009KT 30/M02 A2992 RMK A01 T02991018  RH  013%=      5-min Rain = 0
KDC1 231726Z 25008KT 30/M02 A2992 RMK A01 T02991017  RH  013%=      5-min Rain = 0
KDC1 231727Z 23006KT 30/M03 A2992 RMK A01 T03001031  RH  011%=      5-min Rain = 0
KDC1 231728Z 24005KT 30/M04 A2992 RMK A01 T03001042  RH  011%=      5-min Rain = 0
KDC1 231729Z 25008KT 30/M03 A2992 RMK A01 T03011025  RH  012%=      5-min Rain = 0
KDC1 231730Z 25009KT 30/M03 A2992 RMK A01 T03001026  RH  012%=      5-min Rain = 0
KDC1 231731Z 27009KT 30/M05 A2992 RMK A01 T02981048  RH  010%=      5-min Rain = 0
KDC1 231732Z 28009KT 30/M05 A2992 RMK A01 T03001047  RH  010%=      5-min Rain = 0
KDC1 231733Z 27012KT 31/M04 A2992 RMK A01 T03051040  RH  010%=      5-min Rain = 0
KDC1 231734Z 27013KT 31/M04 A2992 RMK A01 T03081037  RH  011%=      5-min Rain = 0
KDC1 231735Z 27011KT 31/M05 A2992 RMK A01 T03091045  RH  010%=      5-min Rain = 0
KDC1 231736Z 26010KT 31/M06 A2992 RMK A01 T03081055  RH  009%=      5-min Rain = 0
KDC1 231737Z 27009KT 30/M06 A2992 RMK A01 T03041055  RH  009%=      5-min Rain = 0
KDC1 231738Z 26012KT 30/M05 A2992 RMK A01 T03041049  RH  010%=      5-min Rain = 0
KDC1 231739Z 26010KT 31/M05 A2992 RMK A01 T03061052  RH  009%=      5-min Rain = 0
KDC1 231740Z 29011KT 31/M05 A2992 RMK A01 T03061047  RH  010%=      5-min Rain = 0
KDC1 231741Z 30010KT 30/M05 A2992 RMK A01 T03041045  RH  010%=      5-min Rain = 0
KDC1 231742Z 31007KT 30/M05 A2992 RMK A01 T03031045  RH  010%=      5-min Rain = 0
KDC1 231743Z 30007KT 30/M05 A2992 RMK A01 T03041049  RH  010%=      5-min Rain = 0
KDC1 231744Z 30006KT 30/M05 A2992 RMK A01 T03021052  RH  010%=      5-min Rain = 0
KDC1 231745Z 30007KT 30/M05 A2991 RMK A01 T03011045  RH  010%=      5-min Rain = 0
KDC1 231746Z 29007KT 30/M05 A2991 RMK A01 T03011047  RH  010%=      5-min Rain = 0
KDC1 231747Z 28009KT 30/M04 A2991 RMK A01 T03011042  RH  010%=      5-min Rain = 0
KDC1 231748Z 28012KT 31/M03 A2991 RMK A01 T03051032  RH  011%=      5-min Rain = 0
KDC1 231749Z 27011KT 31/M04 A2991 RMK A01 T03081043  RH  010%=      5-min Rain = 0
KDC1 231750Z 27009KT 31/M05 A2991 RMK A01 T03081049  RH  010%=      5-min Rain = 0
KDC1 231751Z 26007KT 31/M05 A2991 RMK A01 T03081054  RH  009%=      5-min Rain = 0
KDC1 231752Z 25009KT 31/M04 A2991 RMK A01 T03071039  RH  010%=      5-min Rain = 0
KDC1 231753Z 26010KT 31/M02 A2991 RMK A01 T03071024  RH  012%=      5-min Rain = 0
KDC1 231754Z 26012KT 31/M04 A2991 RMK A01 T03071039  RH  010%=      5-min Rain = 0
KDC1 231755Z 25010KT 31/M04 A2991 RMK A01 T03081044  RH  010%=      5-min Rain = 0
KDC1 231756Z 24008KT 31/M05 A2991 RMK A01 T03071045  RH  010%=      5-min Rain = 0
KDC1 231757Z 26007KT 31/M04 A2991 RMK A01 T03061042  RH  010%=      5-min Rain = 0
KDC1 231758Z 28011G16KT 31/M04 A2991 RMK A01 T03061040  RH  010%=      5-min Rain = 0
KDC1 231759Z 28014KT 31/M02 A2991 RMK A01 T03081015  RH  012%=      5-min Rain = 0
KDC1 231800Z 29013KT 31/M02 A2991 RMK A01 T03111021  RH  012%=      5-min Rain = 0
KDC1 231801Z 30009KT 31/M04 A2991 RMK A01 T03101042  RH  010%=      5-min Rain = 0
KDC1 231802Z 30008G13KT 31/M05 A2991 RMK A01 T03101046  RH  010%=      5-min Rain = 0
KDC1 231803Z 30009KT 31/M04 A2991 RMK A01 T03101043  RH  010%=      5-min Rain = 0
KDC1 231804Z 29007KT 31/M05 A2991 RMK A01 T03081054  RH  009%=      5-min Rain = 0
KDC1 231805Z 28008KT 31/M05 A2991 RMK A01 T03061049  RH  010%=      5-min Rain = 0
KDC1 231806Z 26008KT 31/M02 A2991 RMK A01 T03071024  RH  012%=      5-min Rain = 0
KDC1 231807Z 25007KT 31/M01 A2991 RMK A01 T03101012  RH  012%=      5-min Rain = 0
KDC1 231808Z 26009KT 31/M02 A2991 RMK A01 T03091021  RH  012%=      5-min Rain = 0
KDC1 231809Z 28010KT 31/M01 A2991 RMK A01 T03101006  RH  013%=      5-min Rain = 0
KDC1 231810Z 27012KT 31/M02 A2991 RMK A01 T03131024  RH  011%=      5-min Rain = 0
KDC1 231811Z 28010KT 32/M05 A2991 RMK A01 T03161047  RH  009%=      5-min Rain = 0
KDC1 231812Z 26011KT 31/M04 A2991 RMK A01 T03121042  RH  010%=      5-min Rain = 0
KDC1 231813Z 26009KT 31/M05 A2991 RMK A01 T03121047  RH  010%=      5-min Rain = 0
KDC1 231814Z 24006KT 31/M04 A2991 RMK A01 T03131036  RH  010%=      5-min Rain = 0
KDC1 231815Z 26010G16KT 31/M04 A2991 RMK A01 T03141036  RH  010%=      5-min Rain = 0
KDC1 231816Z 27014KT 31/M04 A2991 RMK A01 T03141040  RH  010%=      5-min Rain = 0
KDC1 231817Z 28011KT 31/M05 A2991 RMK A01 T03121046  RH  010%=      5-min Rain = 0
KDC1 231818Z 28009KT 31/M05 A2991 RMK A01 T03121048  RH  009%=      5-min Rain = 0
KDC1 231819Z 29008KT 31/M05 A2991 RMK A01 T03111045  RH  010%=      5-min Rain = 0
KDC1 231820Z 28008KT 31/M05 A2991 RMK A01 T03101054  RH  009%=      5-min Rain = 0
KDC1 231821Z 27008KT 31/M05 A2991 RMK A01 T03081052  RH  009%=      5-min Rain = 0
KDC1 231822Z 28009KT 31/M04 A2991 RMK A01 T03081041  RH  010%=      5-min Rain = 0
KDC1 231823Z 28008KT 31/M04 A2991 RMK A01 T03101042  RH  010%=      5-min Rain = 0
KDC1 231824Z 28010KT 31/M03 A2991 RMK A01 T03121030  RH  011%=      5-min Rain = 0
KDC1 231825Z 28008KT 31/M05 A299 RMK A01 T03141049  RH  009%=      5-min Rain = 0
KDC1 231826Z 28009KT 31/M05 A299 RMK A01 T03121049  RH  009%=      5-min Rain = 0
KDC1 231827Z 29010KT 31/M05 A299 RMK A01 T03121049  RH  009%=      5-min Rain = 0
KDC1 231828Z 29010KT 31/M05 A299 RMK A01 T03081049  RH  010%=      5-min Rain = 0
KDC1 231829Z 27009KT 31/M04 A299 RMK A01 T03091044  RH  010%=      5-min Rain = 0
KDC1 231830Z 25007KT 31/M06 A299 RMK A01 T03131056  RH  009%=      5-min Rain = 0
KDC1 231831Z 22004KT 31/M05 A299 RMK A01 T03131054  RH  009%=      5-min Rain = 0
KDC1 231832Z 25003KT 31/M06 A299 RMK A01 T03101057  RH  009%=      5-min Rain = 0
KDC1 231833Z 27008KT 31/M05 A299 RMK A01 T03121050  RH  009%=      5-min Rain = 0
KDC1 231834Z 28009KT 31/M05 A299 RMK A01 T03131053  RH  009%=      5-min Rain = 0
KDC1 231835Z 27007KT 31/M06 A299 RMK A01 T03131057  RH  009%=      5-min Rain = 0
KDC1 231836Z 28007KT 31/M06 A299 RMK A01 T03131055  RH  009%=      5-min Rain = 0
KDC1 231837Z 28007KT 32/M05 A299 RMK A01 T03151048  RH  009%=      5-min Rain = 0
KDC1 231838Z 26007KT 32/M05 A299 RMK A01 T03161050  RH  009%=      5-min Rain = 0
KDC1 231839Z 24006KT 32/M04 A299 RMK A01 T03151038  RH  010%=      5-min Rain = 0
KDC1 231840Z 25006G12KT 31/M02 A299 RMK A01 T03131024  RH  011%=      5-min Rain = 0
KDC1 231841Z 26008G13KT 31/00 A299 RMK A01 T03130004  RH  014%=      5-min Rain = 0
KDC1 231842Z 25008KT 31/M01 A299 RMK A01 T03141008  RH  013%=      5-min Rain = 0
KDC1 231843Z 26009KT 31/M04 A299 RMK A01 T03141035  RH  010%=      5-min Rain = 0
KDC1 231844Z 26007KT 31/M03 A2989 RMK A01 T03131034  RH  010%=      5-min Rain = 0
KDC1 231845Z 28009KT 32/M05 A2989 RMK A01 T03171049  RH  009%=      5-min Rain = 0
KDC1 231846Z 25007KT 32/M05 A2989 RMK A01 T03161048  RH  009%=      5-min Rain = 0
KDC1 231847Z 26008G14KT 31/M02 A2989 RMK A01 T03141024  RH  011%=      5-min Rain = 0
KDC1 231848Z 28012KT 32/M03 A2989 RMK A01 T03171032  RH  010%=      5-min Rain = 0
KDC1 231849Z 28012KT 32/M04 A2989 RMK A01 T03171044  RH  009%=      5-min Rain = 0
KDC1 231850Z 26011KT 32/M05 A2989 RMK A01 T03161051  RH  009%=      5-min Rain = 0
KDC1 231851Z 27008KT 32/M06 A2989 RMK A01 T03161060  RH  008%=      5-min Rain = 0
KDC1 231852Z 25006KT 32/M06 A2989 RMK A01 T03151060  RH  008%=      5-min Rain = 0
KDC1 231853Z 24004KT 31/M06 A2989 RMK A01 T03141060  RH  008%=      5-min Rain = 0
KDC1 231854Z 24004KT 31/M05 A2989 RMK A01 T03141046  RH  009%=      5-min Rain = 0
KDC1 231855Z 23005KT 32/M05 A2989 RMK A01 T03161051  RH  009%=      5-min Rain = 0
KDC1 231856Z 26006KT 32/M05 A2989 RMK A01 T03171049  RH  009%=      5-min Rain = 0
KDC1 231857Z 26006KT 32/M05 A2989 RMK A01 T03151050  RH  009%=      5-min Rain = 0
KDC1 231858Z 24005KT 31/M05 A2989 RMK A01 T03141046  RH  009%=      5-min Rain = 0
KDC1 231859Z 23004KT 31/M01 A2989 RMK A01 T03131014  RH  012%=      5-min Rain = 0
KDC1 231900Z 25005KT 32/M01 A2989 RMK A01 T03161009  RH  012%=      5-min Rain = 0
KDC1 231901Z 24006KT 32/M01 A2989 RMK A01 T03171005  RH  013%=      5-min Rain = 0
KDC1 231902Z 23007KT 32/00 A2989 RMK A01 T03170003  RH  013%=      5-min Rain = 0
KDC1 231903Z 23005KT 32/M01 A2989 RMK A01 T03171013  RH  012%=      5-min Rain = 0
KDC1 231904Z 24006KT 32/M03 A2989 RMK A01 T03161033  RH  010%=      5-min Rain = 0
KDC1 231905Z 25006KT 32/M03 A2989 RMK A01 T03151033  RH  010%=      5-min Rain = 0
KDC1 231906Z 26007KT 31/M03 A2989 RMK A01 T03141029  RH  011%=      5-min Rain = 0
KDC1 231907Z 27005KT 31/M03 A2989 RMK A01 T03121032  RH  011%=      5-min Rain = 0
KDC1 231908Z 28005KT 32/M04 A2988 RMK A01 T03151035  RH  010%=      5-min Rain = 0
KDC1 231909Z 28007KT 32/M04 A2989 RMK A01 T03181037  RH  010%=      5-min Rain = 0
KDC1 231910Z 28010KT 32/M05 A2988 RMK A01 T03201050  RH  009%=      5-min Rain = 0
KDC1 231911Z 29007KT 32/M06 A2988 RMK A01 T03171056  RH  009%=      5-min Rain = 0
KDC1 231912Z 29007KT 32/M06 A2988 RMK A01 T03151056  RH  009%=      5-min Rain = 0
KDC1 231913Z 29008G13KT 32/M05 A2988 RMK A01 T03161054  RH  009%=      5-min Rain = 0
KDC1 231914Z 29007KT 32/M06 A2988 RMK A01 T03171059  RH  008%=      5-min Rain = 0
KDC1 231915Z 29003KT 31/M07 A2988 RMK A01 T03141065  RH  008%=      5-min Rain = 0
KDC1 231916Z 24001KT 31/M07 A2988 RMK A01 T03101067  RH  008%=      5-min Rain = 0
KDC1 231917Z 15001KT 31/M06 A2988 RMK A01 T03101063  RH  009%=      5-min Rain = 0
KDC1 231918Z 20002KT 31/M06 A2988 RMK A01 T03111060  RH  009%=      5-min Rain = 0
KDC1 231919Z 19002KT 31/M05 A2988 RMK A01 T03131050  RH  009%=      5-min Rain = 0
KDC1 231920Z 20002KT 32/M05 A2988 RMK A01 T03161052  RH  009%=      5-min Rain = 0
KDC1 231921Z 32003KT 32/M03 A2988 RMK A01 T03191026  RH  011%=      5-min Rain = 0
KDC1 231922Z 15001KT 32/M01 A2988 RMK A01 T03211006  RH  012%=      5-min Rain = 0
KDC1 231923Z 19005KT 32/M04 A2988 RMK A01 T03221035  RH  010%=      5-min Rain = 0
KDC1 231924Z 19004KT 32/M05 A2988 RMK A01 T03201046  RH  009%=      5-min Rain = 0
KDC1 231925Z 23004KT 32/M05 A2988 RMK A01 T03171045  RH  009%=      5-min Rain = 0
KDC1 231926Z 23005G10KT 32/M04 A2988 RMK A01 T03171035  RH  010%=      5-min Rain = 0
KDC1 231927Z 24008KT 32/M04 A2988 RMK A01 T03181039  RH  010%=      5-min Rain = 0
KDC1 231928Z 26006KT 32/M05 A2988 RMK A01 T03191054  RH  009%=      5-min Rain = 0
KDC1 231929Z 26005KT 32/M06 A2988 RMK A01 T03181061  RH  008%=      5-min Rain = 0
KDC1 231930Z 25006KT 32/M06 A2988 RMK A01 T03181059  RH  008%=      5-min Rain = 0
KDC1 231931Z 24005KT 32/M06 A2988 RMK A01 T03181057  RH  009%=      5-min Rain = 0
KDC1 231932Z 22006KT 32/M04 A2988 RMK A01 T03191040  RH  010%=      5-min Rain = 0
KDC1 231933Z 21004KT 32/M05 A2987 RMK A01 T03201051  RH  009%=      5-min Rain = 0
KDC1 231934Z 22004KT 32/M05 A2987 RMK A01 T03191051  RH  009%=      5-min Rain = 0
KDC1 231935Z 22003KT 32/M06 A2987 RMK A01 T03211056  RH  008%=      5-min Rain = 0
KDC1 231936Z 22003KT 32/M06 A2987 RMK A01 T03211062  RH  008%=      5-min Rain = 0
KDC1 231937Z 25001KT 32/M06 A2987 RMK A01 T03201064  RH  008%=      5-min Rain = 0
KDC1 231938Z 31001KT 32/M06 A2987 RMK A01 T03201064  RH  008%=      5-min Rain = 0
KDC1 231939Z 24005KT 32/M06 A2987 RMK A01 T03221058  RH  008%=      5-min Rain = 0
KDC1 231940Z 24005KT 32/M05 A2987 RMK A01 T03201050  RH  009%=      5-min Rain = 0
KDC1 231941Z 25002KT 32/M04 A2987 RMK A01 T03201039  RH  010%=      5-min Rain = 0
KDC1 231942Z 27007KT 32/M03 A2987 RMK A01 T03241026  RH  010%=      5-min Rain = 0
KDC1 231943Z 25006KT 32/M03 A2987 RMK A01 T03241029  RH  010%=      5-min Rain = 0
KDC1 231944Z 26007KT 32/M04 A2987 RMK A01 T03231044  RH  009%=      5-min Rain = 0
KDC1 231945Z 25007G12KT 32/M05 A2987 RMK A01 T03231050  RH  009%=      5-min Rain = 0
KDC1 231946Z 27006KT 32/M06 A2987 RMK A01 T03231059  RH  008%=      5-min Rain = 0
KDC1 231947Z 26003KT 32/M06 A2987 RMK A01 T03191056  RH  009%=      5-min Rain = 0
KDC1 231948Z 28003KT 32/M06 A2987 RMK A01 T03191061  RH  008%=      5-min Rain = 0
KDC1 231949Z 33002KT 32/M06 A2987 RMK A01 T03201062  RH  008%=      5-min Rain = 0
KDC1 231950Z 26002KT 32/M06 A2987 RMK A01 T03201061  RH  008%=      5-min Rain = 0
KDC1 231951Z 24004KT 32/M06 A2987 RMK A01 T03221059  RH  008%=      5-min Rain = 0
KDC1 231952Z 26002KT 32/M06 A2987 RMK A01 T03231061  RH  008%=      5-min Rain = 0
KDC1 231953Z 30003KT 32/M06 A2986 RMK A01 T03231057  RH  008%=      5-min Rain = 0
KDC1 231954Z 28002KT 32/M06 A2986 RMK A01 T03231058  RH  008%=      5-min Rain = 0
KDC1 231955Z 24003KT 32/M06 A2986 RMK A01 T03231055  RH  008%=      5-min Rain = 0
KDC1 231956Z 25004KT 32/M04 A2986 RMK A01 T03241042  RH  009%=      5-min Rain = 0
KDC1 231957Z 23006KT 32/M03 A2986 RMK A01 T03241031  RH  010%=      5-min Rain = 0
KDC1 231958Z 26009KT 32/M03 A2986 RMK A01 T03231027  RH  010%=      5-min Rain = 0
KDC1 231959Z 28010KT 32/M05 A2986 RMK A01 T03231052  RH  009%=      5-min Rain = 0
KDC1 232000Z 28009G14KT 32/M06 A2986 RMK A01 T03241056  RH  008%=      5-min Rain = 0
KDC1 232001Z 25008KT 32/M06 A2986 RMK A01 T03231058  RH  008%=      5-min Rain = 0
KDC1 232002Z 26007KT 32/M05 A2986 RMK A01 T03241052  RH  009%=      5-min Rain = 0
KDC1 232003Z 26005KT 33/M05 A2986 RMK A01 T03291050  RH  008%=      5-min Rain = 0
KDC1 232004Z 23005G10KT 33/M01 A2986 RMK A01 T03331012  RH  011%=      5-min Rain = 0
KDC1 232005Z 23006KT 34/M01 A2986 RMK A01 T03361014  RH  011%=      5-min Rain = 0
KDC1 232006Z 22006KT 33/M02 A2986 RMK A01 T03321021  RH  010%=      5-min Rain = 0
KDC1 232007Z 23005KT 33/M05 A2986 RMK A01 T03281048  RH  009%=      5-min Rain = 0
KDC1 232008Z 25007KT 33/M03 A2986 RMK A01 T03271026  RH  010%=      5-min Rain = 0
KDC1 232009Z 23007KT 33/M02 A2986 RMK A01 T03291015  RH  011%=      5-min Rain = 0
KDC1 232010Z 23007KT 33/M01 A2986 RMK A01 T03281010  RH  011%=      5-min Rain = 0
KDC1 232011Z 24005G10KT 33/M02 A2986 RMK A01 T03291022  RH  010%=      5-min Rain = 0
KDC1 232012Z 23010KT 33/M02 A2986 RMK A01 T03291020  RH  011%=      5-min Rain = 0
KDC1 232013Z 22004KT 33/M05 A2986 RMK A01 T03291053  RH  008%=      5-min Rain = 0
KDC1 232014Z 25004KT 33/M06 A2986 RMK A01 T03281057  RH  008%=      5-min Rain = 0
KDC1 232015Z 26006KT 33/M05 A2986 RMK A01 T03281054  RH  008%=      5-min Rain = 0
KDC1 232016Z 23004KT 33/M06 A2986 RMK A01 T03261055  RH  008%=      5-min Rain = 0
KDC1 232017Z 25003KT 33/M06 A2985 RMK A01 T03261056  RH  008%=      5-min Rain = 0
KDC1 232018Z 24004KT 33/M05 A2985 RMK A01 T03271053  RH  008%=      5-min Rain = 0
KDC1 232019Z 24003KT 33/M05 A2985 RMK A01 T03291051  RH  008%=      5-min Rain = 0
KDC1 232020Z 25004KT 33/M03 A2985 RMK A01 T03311030  RH  010%=      5-min Rain = 0
KDC1 232021Z 21005KT 33/M02 A2985 RMK A01 T03331022  RH  010%=      5-min Rain = 0
KDC1 232022Z 22002KT 33/00 A2985 RMK A01 T033400-0  RH  012%=      5-min Rain = 0
KDC1 232023Z 20004KT 33/M01 A2985 RMK A01 T03341011  RH  011%=      5-min Rain = 0
KDC1 232024Z 20005KT 33/M02 A2985 RMK A01 T03341016  RH  011%=      5-min Rain = 0
KDC1 232025Z 21005KT 34/M04 A2985 RMK A01 T03361038  RH  009%=      5-min Rain = 0
KDC1 232026Z 23006KT 33/M05 A2985 RMK A01 T03331051  RH  008%=      5-min Rain = 0
KDC1 232027Z 24006KT 33/M06 A2985 RMK A01 T03321058  RH  008%=      5-min Rain = 0
KDC1 232028Z 27004KT 33/M06 A2985 RMK A01 T03281061  RH  008%=      5-min Rain = 0
KDC1 232029Z 28005KT 33/M06 A2985 RMK A01 T03271063  RH  008%=      5-min Rain = 0
KDC1 232030Z 27007KT 33/M06 A2985 RMK A01 T03261063  RH  008%=      5-min Rain = 0
KDC1 232031Z 25004KT 33/M07 A2985 RMK A01 T03281065  RH  008%=      5-min Rain = 0
KDC1 232032Z 26002KT 33/M06 A2985 RMK A01 T03291061  RH  008%=      5-min Rain = 0
KDC1 232033Z 27003KT 33/M06 A2985 RMK A01 T03301063  RH  008%=      5-min Rain = 0
KDC1 232034Z 24004KT 33/M04 A2985 RMK A01 T03301040  RH  009%=      5-min Rain = 0
KDC1 232035Z 26005KT 33/M05 A2985 RMK A01 T03291052  RH  008%=      5-min Rain = 0
KDC1 232036Z 22006KT 33/M04 A2985 RMK A01 T03311038  RH  009%=      5-min Rain = 0
KDC1 232037Z 22008G13KT 33/M04 A2985 RMK A01 T03321037  RH  009%=      5-min Rain = 0
KDC1 232038Z 22007KT 33/M04 A2985 RMK A01 T03301036  RH  009%=      5-min Rain = 0
KDC1 232039Z 23009KT 33/M03 A2985 RMK A01 T03301027  RH  010%=      5-min Rain = 0
KDC1 232040Z 22008KT 33/M03 A2985 RMK A01 T03291025  RH  010%=      5-min Rain = 0
KDC1 232041Z 22009KT 33/M03 A2985 RMK A01 T03291027  RH  010%=      5-min Rain = 0
KDC1 232042Z 21005KT 33/M04 A2985 RMK A01 T03301039  RH  009%=      5-min Rain = 0
KDC1 232043Z 23006KT 33/M04 A2985 RMK A01 T03311039  RH  009%=      5-min Rain = 0
KDC1 232044Z 22003KT 33/M04 A2985 RMK A01 T03331038  RH  009%=      5-min Rain = 0
KDC1 232045Z 19006KT 34/M04 A2985 RMK A01 T03351035  RH  009%=      5-min Rain = 0
KDC1 232046Z 19005KT 33/M05 A2985 RMK A01 T03331048  RH  008%=      5-min Rain = 0
KDC1 232047Z 20003KT 33/M07 A2985 RMK A01 T03291065  RH  007%=      5-min Rain = 0
KDC1 232048Z 20003KT 33/M05 A2985 RMK A01 T03271051  RH  008%=      5-min Rain = 0
KDC1 232049Z 22003KT 33/M04 A2985 RMK A01 T03291041  RH  009%=      5-min Rain = 0
KDC1 232050Z 24003KT 33/M06 A2984 RMK A01 T03321056  RH  008%=      5-min Rain = 0
KDC1 232051Z 23004KT 33/M06 A2984 RMK A01 T03331061  RH  008%=      5-min Rain = 0
KDC1 232052Z 24007G13KT 33/M02 A2984 RMK A01 T03321024  RH  010%=      5-min Rain = 0
KDC1 232053Z 22006KT 33/M04 A2984 RMK A01 T03341037  RH  009%=      5-min Rain = 0
KDC1 232054Z 24006KT 33/M04 A2984 RMK A01 T03341036  RH  009%=      5-min Rain = 0
KDC1 232055Z 24007KT 33/M01 A2984 RMK A01 T03341007  RH  011%=      5-min Rain = 0
KDC1 232056Z 24009KT 33/02 A2984 RMK A01 T03320020  RH  014%=      5-min Rain = 0
KDC1 232057Z 24007KT 33/M02 A2984 RMK A01 T03301019  RH  011%=      5-min Rain = 0
KDC1 232058Z 23006KT 33/M03 A2984 RMK A01 T03291034  RH  009%=      5-min Rain = 0
KDC1 232059Z 21005KT 33/M03 A2984 RMK A01 T03291027  RH  010%=      5-min Rain = 0
KDC1 232100Z 20006KT 33/M03 A2984 RMK A01 T03291029  RH  010%=      5-min Rain = 0
KDC1 232101Z 22006KT 33/M03 A2984 RMK A01 T03291032  RH  010%=      5-min Rain = 0
KDC1 232102Z 23012KT 33/M02 A2984 RMK A01 T03301019  RH  011%=      5-min Rain = 0
KDC1 232103Z 22010KT 33/M04 A2984 RMK A01 T03291039  RH  009%=      5-min Rain = 0
KDC1 232104Z 21009KT 33/M05 A2984 RMK A01 T03281046  RH  009%=      5-min Rain = 0
KDC1 232105Z 21010KT 33/M06 A2984 RMK A01 T03281059  RH  008%=      5-min Rain = 0
KDC1 232106Z 20006KT 33/M07 A2984 RMK A01 T03261073  RH  007%=      5-min Rain = 0
KDC1 232107Z 19006KT 33/M07 A2984 RMK A01 T03261069  RH  007%=      5-min Rain = 0
KDC1 232108Z 20006KT 33/M06 A2984 RMK A01 T03251063  RH  008%=      5-min Rain = 0
KDC1 232109Z 23006KT 33/M05 A2984 RMK A01 T03281047  RH  009%=      5-min Rain = 0
KDC1 232110Z 23005KT 34/M03 A2984 RMK A01 T03351033  RH  009%=      5-min Rain = 0
KDC1 232111Z 25006KT 34/M03 A2984 RMK A01 T03361032  RH  009%=      5-min Rain = 0
KDC1 232112Z 25007KT 34/M02 A2984 RMK A01 T03361019  RH  010%=      5-min Rain = 0
KDC1 232113Z 26008KT 34/M05 A2984 RMK A01 T03361049  RH  008%=      5-min Rain = 0
KDC1 232114Z 27007KT 33/M06 A2984 RMK A01 T03331063  RH  007%=      5-min Rain = 0
KDC1 232115Z 26006KT 33/M07 A2984 RMK A01 T03331072  RH  007%=      5-min Rain = 0
KDC1 232116Z 24006KT 34/M06 A2984 RMK A01 T03351055  RH  008%=      5-min Rain = 0
KDC1 232117Z 25007KT 34/M04 A2984 RMK A01 T03351037  RH  009%=      5-min Rain = 0
KDC1 232118Z 25008KT 34/M03 A2983 RMK A01 T03361031  RH  009%=      5-min Rain = 0
KDC1 232119Z 24009KT 34/M04 A2983 RMK A01 T03361037  RH  009%=      5-min Rain = 0
KDC1 232120Z 22005G10KT 33/M03 A2983 RMK A01 T03331031  RH  009%=      5-min Rain = 0
KDC1 232121Z 22006KT 33/M02 A2983 RMK A01 T03331019  RH  010%=      5-min Rain = 0
KDC1 232122Z 20006KT 33/M03 A2983 RMK A01 T03321033  RH  009%=      5-min Rain = 0
KDC1 232123Z 22006KT 33/M05 A2983 RMK A01 T03321050  RH  008%=      5-min Rain = 0
KDC1 232124Z 24005KT 33/M03 A2983 RMK A01 T03321032  RH  010%=      5-min Rain = 0
KDC1 232125Z 22004KT 33/M00 A2983 RMK A01 T03331003  RH  012%=      5-min Rain = 0
KDC1 232126Z 23003KT 34/M01 A2983 RMK A01 T03361011  RH  011%=      5-min Rain = 0
KDC1 232127Z 23005KT 34/M02 A2983 RMK A01 T03371015  RH  010%=      5-min Rain = 0
KDC1 232128Z 23006KT 34/M01 A2983 RMK A01 T03371010  RH  011%=      5-min Rain = 0
KDC1 232129Z 24010KT 33/00 A2983 RMK A01 T03340001  RH  012%=      5-min Rain = 0
KDC1 232130Z 23009KT 33/00 A2983 RMK A01 T03310003  RH  012%=      5-min Rain = 0
KDC1 232131Z 22007G13KT 33/M02 A2983 RMK A01 T03291016  RH  011%=      5-min Rain = 0
KDC1 232132Z 23008KT 33/M03 A2983 RMK A01 T03301034  RH  010%=      5-min Rain = 0
KDC1 232133Z 23006G11KT 33/M04 A2983 RMK A01 T03301043  RH  009%=      5-min Rain = 0
KDC1 232134Z 24006KT 33/M04 A2983 RMK A01 T03301042  RH  009%=      5-min Rain = 0
KDC1 232135Z 23005KT 33/M02 A2983 RMK A01 T03301019  RH  011%=      5-min Rain = 0
KDC1 232136Z 25015KT 33/M02 A2982 RMK A01 T03301020  RH  011%=      5-min Rain = 0
KDC1 232137Z 24009KT 33/M02 A2983 RMK A01 T03291017  RH  011%=      5-min Rain = 0
KDC1 232138Z 22010KT 33/M01 A2983 RMK A01 T03291007  RH  012%=      5-min Rain = 0
KDC1 232139Z 22010KT 33/M03 A2983 RMK A01 T03281026  RH  010%=      5-min Rain = 0
KDC1 232140Z 22009KT 33/M04 A2983 RMK A01 T03281039  RH  009%=      5-min Rain = 0
KDC1 232141Z 21009KT 33/M04 A2983 RMK A01 T03281042  RH  009%=      5-min Rain = 0
KDC1 232142Z 23010KT 33/M04 A2983 RMK A01 T03291036  RH  009%=      5-min Rain = 0
KDC1 232143Z 22009KT 33/M03 A2983 RMK A01 T03281031  RH  010%=      5-min Rain = 0
KDC1 232144Z 21007KT 33/M04 A2983 RMK A01 T03271037  RH  009%=      5-min Rain = 0
KDC1 232145Z 22006KT 33/M04 A2983 RMK A01 T03281036  RH  009%=      5-min Rain = 0
KDC1 232146Z 20006G12KT 33/M06 A2982 RMK A01 T03291055  RH  008%=      5-min Rain = 0
KDC1 232147Z 21008G13KT 33/M05 A2982 RMK A01 T03281050  RH  009%=      5-min Rain = 0
KDC1 232148Z 20005KT 33/M06 A2982 RMK A01 T03261062  RH  008%=      5-min Rain = 0
KDC1 232149Z 21006KT 33/M06 A2982 RMK A01 T03261061  RH  008%=      5-min Rain = 0
KDC1 232150Z 23006G11KT 33/M05 A2982 RMK A01 T03271049  RH  009%=      5-min Rain = 0
KDC1 232151Z 24009KT 33/M04 A2982 RMK A01 T03301036  RH  009%=      5-min Rain = 0
KDC1 232152Z 23006KT 33/M01 A2982 RMK A01 T03301007  RH  012%=      5-min Rain = 0
KDC1 232153Z 24005KT 33/M00 A2982 RMK A01 T03311001  RH  012%=      5-min Rain = 0
KDC1 232154Z 23007KT 33/01 A2982 RMK A01 T03310011  RH  013%=      5-min Rain = 0
KDC1 232155Z 23006KT 33/M02 A2982 RMK A01 T03301024  RH  010%=      5-min Rain = 0
KDC1 232156Z 21005KT 33/M04 A2982 RMK A01 T03301044  RH  009%=      5-min Rain = 0
KDC1 232157Z 23007G13KT 33/M04 A2982 RMK A01 T03301039  RH  009%=      5-min Rain = 0
KDC1 232158Z 25008KT 33/M02 A2982 RMK A01 T03291016  RH  011%=      5-min Rain = 0
KDC1 232159Z 25011KT 33/M05 A2982 RMK A01 T03291054  RH  008%=      5-min Rain = 0
KDC1 232200Z 25008KT 33/M04 A2982 RMK A01 T03291043  RH  009%=      5-min Rain = 0
KDC1 232201Z 25007KT 33/M03 A2982 RMK A01 T03281025  RH  010%=      5-min Rain = 0
KDC1 232202Z 25008KT 33/M02 A2982 RMK A01 T03291018  RH  011%=      5-min Rain = 0
KDC1 232203Z 24007KT 33/M02 A2982 RMK A01 T03291024  RH  010%=      5-min Rain = 0
KDC1 232204Z 23007G13KT 33/00 A2982 RMK A01 T03300003  RH  012%=      5-min Rain = 0
KDC1 232205Z 24012KT 33/M01 A2981 RMK A01 T03291007  RH  012%=      5-min Rain = 0
KDC1 232206Z 23010KT 33/M01 A2981 RMK A01 T03281010  RH  011%=      5-min Rain = 0
KDC1 232207Z 24011KT 33/M02 A2982 RMK A01 T03271019  RH  011%=      5-min Rain = 0
KDC1 232208Z 23009G15KT 33/M03 A2982 RMK A01 T03251034  RH  010%=      5-min Rain = 0
KDC1 232209Z 22005G10KT 33/M03 A2981 RMK A01 T03251033  RH  010%=      5-min Rain = 0
KDC1 232210Z 23005KT 33/M02 A2981 RMK A01 T03251017  RH  011%=      5-min Rain = 0
KDC1 232211Z 23007KT 33/M00 A2981 RMK A01 T03271004  RH  012%=      5-min Rain = 0
KDC1 232212Z 24008KT 33/M02 A2981 RMK A01 T03291020  RH  011%=      5-min Rain = 0
KDC1 232213Z 24010G15KT 33/M03 A2981 RMK A01 T03291032  RH  010%=      5-min Rain = 0
KDC1 232214Z 24012KT 33/M02 A2981 RMK A01 T03291023  RH  010%=      5-min Rain = 0
KDC1 232215Z 23009KT 33/M04 A2981 RMK A01 T03261040  RH  009%=      5-min Rain = 0
KDC1 232216Z 23008KT 33/M03 A2981 RMK A01 T03251034  RH  010%=      5-min Rain = 0
KDC1 232217Z 26010KT 33/M02 A2981 RMK A01 T03251023  RH  011%=      5-min Rain = 0
KDC1 232218Z 26012KT 33/M03 A2981 RMK A01 T03251033  RH  010%=      5-min Rain = 0
KDC1 232219Z 25010KT 33/M05 A2981 RMK A01 T03271049  RH  009%=      5-min Rain = 0
KDC1 232220Z 24008KT 33/M03 A2981 RMK A01 T03271025  RH  010%=      5-min Rain = 0
KDC1 232221Z 24009G14KT 33/M02 A2981 RMK A01 T03251015  RH  011%=      5-min Rain = 0
KDC1 232222Z 24011KT 32/M01 A2981 RMK A01 T03241011  RH  012%=      5-min Rain = 0
KDC1 232223Z 24010KT 32/M02 A2981 RMK A01 T03221018  RH  011%=      5-min Rain = 0
KDC1 232224Z 23010G15KT 32/M02 A2981 RMK A01 T03221023  RH  011%=      5-min Rain = 0
KDC1 232225Z 22009G14KT 32/M02 A2981 RMK A01 T03231021  RH  011%=      5-min Rain = 0
KDC1 232226Z 23007KT 32/M03 A2981 RMK A01 T03231031  RH  010%=      5-min Rain = 0
KDC1 232227Z 24007KT 32/M03 A2981 RMK A01 T03241034  RH  010%=      5-min Rain = 0
KDC1 232228Z 23007KT 33/M02 A2981 RMK A01 T03261022  RH  011%=      5-min Rain = 0
KDC1 232229Z 23007KT 33/M02 A298 RMK A01 T03271020  RH  011%=      5-min Rain = 0
KDC1 232230Z 25009G14KT 33/M03 A298 RMK A01 T03271029  RH  010%=      5-min Rain = 0
KDC1 232231Z 23005G11KT 33/M04 A298 RMK A01 T03271036  RH  010%=      5-min Rain = 0
KDC1 232232Z 22006KT 33/M01 A298 RMK A01 T03281012  RH  011%=      5-min Rain = 0
KDC1 232233Z 21006G11KT 33/M03 A298 RMK A01 T03291027  RH  010%=      5-min Rain = 0
KDC1 232234Z 22005KT 33/M03 A298 RMK A01 T03301034  RH  009%=      5-min Rain = 0
KDC1 232235Z 23008G15KT 33/M03 A298 RMK A01 T03301032  RH  010%=      5-min Rain = 0
KDC1 232236Z 23010G16KT 33/M04 A298 RMK A01 T03301036  RH  009%=      5-min Rain = 0
KDC1 232237Z 24009G15KT 33/M05 A298 RMK A01 T03281045  RH  009%=      5-min Rain = 0
KDC1 232238Z 24011G16KT 33/M03 A298 RMK A01 T03261029  RH  010%=      5-min Rain = 0
KDC1 232239Z 22007KT 33/M02 A298 RMK A01 T03251017  RH  011%=      5-min Rain = 0
KDC1 232240Z 23008KT 32/M01 A298 RMK A01 T03241010  RH  012%=      5-min Rain = 0
KDC1 232241Z 24007KT 32/M02 A298 RMK A01 T03231017  RH  011%=      5-min Rain = 0
KDC1 232242Z 24010G15KT 32/M02 A298 RMK A01 T03241018  RH  011%=      5-min Rain = 0
KDC1 232243Z 23008KT 33/M03 A298 RMK A01 T03251031  RH  010%=      5-min Rain = 0
KDC1 232244Z 22007KT 32/M03 A298 RMK A01 T03241028  RH  010%=      5-min Rain = 0
KDC1 232245Z 23005KT 32/M02 A298 RMK A01 T03241023  RH  011%=      5-min Rain = 0
KDC1 232246Z 22005KT 33/M01 A298 RMK A01 T03261012  RH  011%=      5-min Rain = 0
KDC1 232247Z 21009KT 33/M02 A298 RMK A01 T03271022  RH  011%=      5-min Rain = 0
KDC1 232248Z 22007KT 33/M04 A298 RMK A01 T03261039  RH  009%=      5-min Rain = 0
KDC1 232249Z 21006KT 33/M04 A298 RMK A01 T03261035  RH  010%=      5-min Rain = 0
KDC1 232250Z 22007KT 33/M04 A298 RMK A01 T03261036  RH  010%=      5-min Rain = 0
KDC1 232251Z 21006G11KT 33/M04 A298 RMK A01 T03251040  RH  009%=      5-min Rain = 0
KDC1 232252Z 20010KT 33/M04 A298 RMK A01 T03271036  RH  009%=      5-min Rain = 0
KDC1 232253Z 20009KT 33/M04 A298 RMK A01 T03271038  RH  009%=      5-min Rain = 0
KDC1 232254Z 22007KT 33/M05 A298 RMK A01 T03251045  RH  009%=      5-min Rain = 0
KDC1 232255Z 22007G12KT 33/M05 A298 RMK A01 T03251045  RH  009%=      5-min Rain = 0
KDC1 232256Z 23007G13KT 33/M04 A298 RMK A01 T03261040  RH  009%=      5-min Rain = 0
KDC1 232257Z 24009KT 33/M00 A298 RMK A01 T03261003  RH  012%=      5-min Rain = 0
KDC1 232258Z 24011KT 32/01 A298 RMK A01 T03230009  RH  013%=      5-min Rain = 0
KDC1 232259Z 24011G17KT 32/M02 A298 RMK A01 T03201023  RH  011%=      5-min Rain = 0
KDC1 232300Z 24010KT 32/M03 A298 RMK A01 T03201027  RH  011%=      5-min Rain = 0
KDC1 232301Z 25012KT 32/M02 A298 RMK A01 T03201015  RH  012%=      5-min Rain = 0
KDC1 232302Z 25010KT 32/M01 A298 RMK A01 T03191013  RH  012%=      5-min Rain = 0
KDC1 232303Z 24010G15KT 32/M01 A298 RMK A01 T03191014  RH  012%=      5-min Rain = 0
KDC1 232304Z 24008G13KT 32/M02 A298 RMK A01 T03201017  RH  011%=      5-min Rain = 0
KDC1 232305Z 22008G13KT 32/M01 A298 RMK A01 T03211013  RH  012%=      5-min Rain = 0
KDC1 232306Z 22005G10KT 32/M02 A298 RMK A01 T03231016  RH  011%=      5-min Rain = 0
KDC1 232307Z 22007KT 32/M02 A298 RMK A01 T03241021  RH  011%=      5-min Rain = 0
KDC1 232308Z 25007KT 32/M02 A2979 RMK A01 T03241022  RH  011%=      5-min Rain = 0
KDC1 232309Z 24010G16KT 32/M01 A298 RMK A01 T03231013  RH  012%=      5-min Rain = 0
KDC1 232310Z 24013G18KT 32/M01 A298 RMK A01 T03211012  RH  012%=      5-min Rain = 0
KDC1 232311Z 24013KT 32/M02 A298 RMK A01 T03181015  RH  012%=      5-min Rain = 0
KDC1 232312Z 24012KT 32/M02 A2979 RMK A01 T03171023  RH  011%=      5-min Rain = 0
KDC1 232313Z 25011KT 32/M02 A2979 RMK A01 T03161018  RH  011%=      5-min Rain = 0
KDC1 232314Z 25008KT 32/M01 A2979 RMK A01 T03171007  RH  012%=      5-min Rain = 0
KDC1 232315Z 25009G15KT 32/M01 A2979 RMK A01 T03171005  RH  013%=      5-min Rain = 0
KDC1 232316Z 25011KT 32/M00 A298 RMK A01 T03171001  RH  013%=      5-min Rain = 0
KDC1 232317Z 25011KT 32/M02 A2979 RMK A01 T03171020  RH  011%=      5-min Rain = 0
KDC1 232318Z 24009KT 32/M03 A2979 RMK A01 T03191027  RH  011%=      5-min Rain = 0
KDC1 232319Z 24008KT 32/M02 A2979 RMK A01 T03201016  RH  011%=      5-min Rain = 0
KDC1 232320Z 24010KT 32/M02 A2979 RMK A01 T03201019  RH  011%=      5-min Rain = 0
KDC1 232321Z 24009KT 32/M03 A2979 RMK A01 T03201032  RH  010%=      5-min Rain = 0
KDC1 232322Z 24007KT 32/M02 A2979 RMK A01 T03201018  RH  011%=      5-min Rain = 0
KDC1 232323Z 25008KT 32/M01 A2979 RMK A01 T03201008  RH  012%=      5-min Rain = 0
KDC1 232324Z 24010KT 32/M01 A2979 RMK A01 T03201008  RH  012%=      5-min Rain = 0
KDC1 232325Z 24007KT 32/M03 A2979 RMK A01 T03191031  RH  010%=      5-min Rain = 0
KDC1 232326Z 26010KT 32/M03 A2979 RMK A01 T03201027  RH  011%=      5-min Rain = 0
KDC1 232327Z 25011G17KT 32/M03 A2979 RMK A01 T03211032  RH  010%=      5-min Rain = 0
KDC1 232328Z 23007KT 32/M01 A2979 RMK A01 T03231005  RH  012%=      5-min Rain = 0
KDC1 232329Z 23009G15KT 32/01 A2979 RMK A01 T03230008  RH  013%=      5-min Rain = 0
KDC1 232330Z 23009G15KT 32/M00 A2979 RMK A01 T03211001  RH  013%=      5-min Rain = 0
KDC1 232331Z 24012G18KT 32/M01 A2979 RMK A01 T03191011  RH  012%=      5-min Rain = 0
KDC1 232332Z 24016KT 32/M01 A2979 RMK A01 T03171014  RH  012%=      5-min Rain = 0
KDC1 232333Z 24012G17KT 32/M02 A2979 RMK A01 T03161015  RH  012%=      5-min Rain = 0
KDC1 232334Z 24012KT 31/M02 A2979 RMK A01 T03141016  RH  012%=      5-min Rain = 0
KDC1 232335Z 24010G16KT 31/M01 A2979 RMK A01 T03141008  RH  013%=      5-min Rain = 0
KDC1 232336Z 23008KT 31/M01 A2979 RMK A01 T03131014  RH  012%=      5-min Rain = 0
KDC1 232337Z 22008KT 32/M02 A2979 RMK A01 T03151020  RH  011%=      5-min Rain = 0
KDC1 232338Z 23009KT 32/M02 A2979 RMK A01 T03161023  RH  011%=      5-min Rain = 0
KDC1 232339Z 22007KT 32/M02 A2979 RMK A01 T03161018  RH  011%=      5-min Rain = 0
KDC1 232340Z 22008KT 32/M02 A2979 RMK A01 T03161016  RH  012%=      5-min Rain = 0
KDC1 232341Z 24010G15KT 32/M01 A2979 RMK A01 T03161009  RH  012%=      5-min Rain = 0
KDC1 232342Z 24010G15KT 32/M01 A2979 RMK A01 T03161007  RH  012%=      5-min Rain = 0
KDC1 232343Z 25013G19KT 32/M02 A2979 RMK A01 T03161022  RH  011%=      5-min Rain = 0
KDC1 232344Z 24012G17KT 32/M03 A2979 RMK A01 T03151027  RH  011%=      5-min Rain = 0
KDC1 232345Z 25014KT 32/M03 A2979 RMK A01 T03151026  RH  011%=      5-min Rain = 0
KDC1 232346Z 25010KT 32/M02 A2979 RMK A01 T03151018  RH  012%=      5-min Rain = 0
KDC1 232347Z 25009KT 31/M01 A2979 RMK A01 T03131014  RH  012%=      5-min Rain = 0
KDC1 232348Z 24010KT 31/M02 A2979 RMK A01 T03131021  RH  011%=      5-min Rain = 0
KDC1 232349Z 25013KT 31/M02 A2979 RMK A01 T03131021  RH  012%=      5-min Rain = 0
KDC1 232350Z 24011KT 31/M03 A2979 RMK A01 T03121029  RH  011%=      5-min Rain = 0
KDC1 232351Z 23009KT 31/M04 A2979 RMK A01 T03131043  RH  010%=      5-min Rain = 0
KDC1 232352Z 24011KT 31/M03 A2979 RMK A01 T03141030  RH  011%=      5-min Rain = 0
KDC1 232353Z 25012KT 32/M02 A2979 RMK A01 T03151020  RH  011%=      5-min Rain = 0
KDC1 232354Z 24010KT 32/M02 A2979 RMK A01 T03151018  RH  012%=      5-min Rain = 0
KDC1 232355Z 24010KT 31/M01 A2979 RMK A01 T03141011  RH  012%=      5-min Rain = 0
KDC1 232356Z 23007KT 31/M01 A2979 RMK A01 T03131008  RH  013%=      5-min Rain = 0
KDC1 232357Z 23006G12KT 31/00 A2979 RMK A01 T03130002  RH  014%=      5-min Rain = 0
KDC1 232358Z 23006KT 31/M00 A2978 RMK A01 T03131004  RH  013%=      5-min Rain = 0
KDC1 232359Z 22009G16KT 31/M00 A2978 RMK A01 T03131003  RH  013%=      5-min Rain = 0
KDC1 240000Z 25012KT 31/M02 A2978 RMK A01 T03131017  RH  012%=      5-min Rain = 0
KDC1 240001Z 26012KT 31/M02 A2978 RMK A01 T03131024  RH  011%=      5-min Rain = 0
KDC1 240002Z 24012KT 31/M04 A2978 RMK A01 T03141036  RH  010%=      5-min Rain = 0
KDC1 240003Z 24009G14KT 32/M02 A2978 RMK A01 T03161021  RH  011%=      5-min Rain = 0
KDC1 240004Z 23009KT 32/M01 A2978 RMK A01 T03161011  RH  012%=      5-min Rain = 0
KDC1 240005Z 24009KT 32/M01 A2978 RMK A01 T03151006  RH  013%=      5-min Rain = 0
KDC1 240006Z 24008KT 31/M00 A2978 RMK A01 T03131001  RH  013%=      5-min Rain = 0
KDC1 240007Z 23007KT 31/M00 A2978 RMK A01 T03121003  RH  013%=      5-min Rain = 0
KDC1 240008Z 24007KT 31/00 A2978 RMK A01 T03120001  RH  014%=      5-min Rain = 0
KDC1 240009Z 25011KT 31/M00 A2978 RMK A01 T03121002  RH  013%=      5-min Rain = 0
KDC1 240010Z 27012KT 31/M01 A2978 RMK A01 T03101012  RH  013%=      5-min Rain = 0
KDC1 240011Z 27013KT 31/M04 A2978 RMK A01 T03121041  RH  010%=      5-min Rain = 0
KDC1 240012Z 27013G18KT 32/M04 A2978 RMK A01 T03161039  RH  010%=      5-min Rain = 0
KDC1 240013Z 28014KT 32/M03 A2978 RMK A01 T03171033  RH  010%=      5-min Rain = 0
KDC1 240014Z 28013KT 32/M03 A2978 RMK A01 T03161028  RH  011%=      5-min Rain = 0
KDC1 240015Z 27011KT 31/M02 A2978 RMK A01 T03141023  RH  011%=      5-min Rain = 0
KDC1 240016Z 25010KT 31/M03 A2978 RMK A01 T03141030  RH  011%=      5-min Rain = 0
KDC1 240017Z 25007KT 32/M02 A2978 RMK A01 T03151022  RH  011%=      5-min Rain = 0
KDC1 240018Z 25013G18KT 31/M01 A2978 RMK A01 T03131007  RH  013%=      5-min Rain = 0
KDC1 240019Z 24012KT 31/M02 A2978 RMK A01 T03101017  RH  012%=      5-min Rain = 0
KDC1 240020Z 24012KT 31/M02 A2978 RMK A01 T03081016  RH  012%=      5-min Rain = 0
KDC1 240021Z 25012KT 31/M02 A2978 RMK A01 T03081019  RH  012%=      5-min Rain = 0
KDC1 240022Z 24010G15KT 31/M02 A2978 RMK A01 T03091020  RH  012%=      5-min Rain = 0
KDC1 240023Z 25012KT 31/M01 A2978 RMK A01 T03091011  RH  013%=      5-min Rain = 0
KDC1 240024Z 25013KT 31/M01 A2978 RMK A01 T03071012  RH  013%=      5-min Rain = 0
KDC1 240025Z 24012KT 31/M01 A2978 RMK A01 T03061012  RH  013%=      5-min Rain = 0
KDC1 240026Z 25011KT 31/M02 A2978 RMK A01 T03051015  RH  013%=      5-min Rain = 0
KDC1 240027Z 24012KT 31/M02 A2978 RMK A01 T03051018  RH  012%=      5-min Rain = 0
KDC1 240028Z 24011KT 31/M02 A2978 RMK A01 T03051020  RH  012%=      5-min Rain = 0
KDC1 240029Z 24010KT 31/M01 A2978 RMK A01 T03051013  RH  013%=      5-min Rain = 0
KDC1 240030Z 25010KT 31/M01 A2978 RMK A01 T03051011  RH  013%=      5-min Rain = 0
KDC1 240031Z 25011G18KT 31/M00 A2978 RMK A01 T03051004  RH  014%=      5-min Rain = 0
KDC1 240032Z 25013KT 30/M02 A2978 RMK A01 T03041022  RH  012%=      5-min Rain = 0
KDC1 240033Z 24009KT 30/M03 A2978 RMK A01 T03041027  RH  012%=      5-min Rain = 0
KDC1 240034Z 24009KT 31/M02 A2978 RMK A01 T03051018  RH  012%=      5-min Rain = 0
KDC1 240035Z 24007KT 31/M01 A2978 RMK A01 T03051006  RH  013%=      5-min Rain = 0
KDC1 240036Z 24007KT 30/M00 A2978 RMK A01 T03031001  RH  014%=      5-min Rain = 0
KDC1 240037Z 25008KT 30/M01 A2978 RMK A01 T03021010  RH  013%=      5-min Rain = 0
KDC1 240038Z 25012KT 30/M01 A2978 RMK A01 T03031011  RH  013%=      5-min Rain = 0
KDC1 240039Z 25012KT 30/M01 A2978 RMK A01 T03031014  RH  013%=      5-min Rain = 0
KDC1 240040Z 25009KT 30/M01 A2978 RMK A01 T03021010  RH  013%=      5-min Rain = 0
KDC1 240041Z 25012KT 30/M01 A2978 RMK A01 T02991008  RH  014%=      5-min Rain = 0
KDC1 240042Z 25012KT 30/M02 A2978 RMK A01 T02981018  RH  013%=      5-min Rain = 0
KDC1 240043Z 25013KT 30/M02 A2978 RMK A01 T03001024  RH  012%=      5-min Rain = 0
KDC1 240044Z 25011KT 30/M02 A2978 RMK A01 T03021023  RH  012%=      5-min Rain = 0
KDC1 240045Z 24008KT 30/M02 A2978 RMK A01 T03021016  RH  013%=      5-min Rain = 0
KDC1 240046Z 23008KT 30/M01 A2978 RMK A01 T03021006  RH  014%=      5-min Rain = 0
KDC1 240047Z 24008KT 30/M01 A2978 RMK A01 T03011005  RH  014%=      5-min Rain = 0
KDC1 240048Z 24009G15KT 30/M00 A2978 RMK A01 T02991003  RH  014%=      5-min Rain = 0
KDC1 240049Z 25012KT 30/M01 A2978 RMK A01 T02991011  RH  013%=      5-min Rain = 0
KDC1 240050Z 25011G16KT 30/M02 A2978 RMK A01 T02981016  RH  013%=      5-min Rain = 0
KDC1 240051Z 24011KT 30/M02 A2978 RMK A01 T02981023  RH  012%=      5-min Rain = 0
KDC1 240052Z 24012G17KT 30/M04 A2978 RMK A01 T02991037  RH  011%=      5-min Rain = 0
KDC1 240053Z 24011G16KT 30/M04 A2978 RMK A01 T03011044  RH  010%=      5-min Rain = 0
KDC1 240054Z 24010KT 30/M05 A2978 RMK A01 T03031048  RH  010%=      5-min Rain = 0
KDC1 240055Z 24009G14KT 30/M04 A2978 RMK A01 T03031036  RH  011%=      5-min Rain = 0
KDC1 240056Z 24013KT 30/M03 A2978 RMK A01 T03021034  RH  011%=      5-min Rain = 0
KDC1 240057Z 25012G18KT 30/M03 A2978 RMK A01 T02991031  RH  011%=      5-min Rain = 0
KDC1 240058Z 25011KT 30/M03 A2978 RMK A01 T02981032  RH  012%=      5-min Rain = 0
KDC1 240059Z 25011KT 30/M03 A2979 RMK A01 T02961030  RH  012%=      5-min Rain = 0
KDC1 240100Z 25012KT 30/M03 A2979 RMK A01 T02961032  RH  012%=      5-min Rain = 0
KDC1 240101Z 24011KT 30/M04 A2979 RMK A01 T02961037  RH  011%=      5-min Rain = 0
KDC1 240102Z 25011KT 30/M03 A2979 RMK A01 T02961034  RH  011%=      5-min Rain = 0
KDC1 240103Z 24010KT 30/M03 A2979 RMK A01 T02951030  RH  012%=      5-min Rain = 0
KDC1 240104Z 25009KT 29/M03 A2979 RMK A01 T02941026  RH  012%=      5-min Rain = 0
KDC1 240105Z 24011KT 29/M03 A2979 RMK A01 T02931029  RH  012%=      5-min Rain = 0
KDC1 240106Z 25010KT 29/M04 A2979 RMK A01 T02931037  RH  011%=      5-min Rain = 0
KDC1 240107Z 24009KT 29/M04 A2979 RMK A01 T02941038  RH  011%=      5-min Rain = 0
KDC1 240108Z 25009G14KT 29/M03 A2979 RMK A01 T02941029  RH  012%=      5-min Rain = 0
KDC1 240109Z 25011KT 29/M03 A2979 RMK A01 T02931029  RH  012%=      5-min Rain = 0
KDC1 240110Z 26012KT 29/M04 A2979 RMK A01 T02921036  RH  012%=      5-min Rain = 0
KDC1 240111Z 25012KT 29/M05 A2979 RMK A01 T02931046  RH  011%=      5-min Rain = 0
KDC1 240112Z 25010KT 29/M04 A2979 RMK A01 T02941038  RH  011%=      5-min Rain = 0
KDC1 240113Z 25010KT 29/M03 A2979 RMK A01 T02931030  RH  012%=      5-min Rain = 0
KDC1 240114Z 25009KT 29/M03 A2979 RMK A01 T02911030  RH  012%=      5-min Rain = 0
KDC1 240115Z 25009KT 29/M03 A2979 RMK A01 T02901026  RH  013%=      5-min Rain = 0
KDC1 240116Z 25009KT 29/M03 A2979 RMK A01 T02891025  RH  013%=      5-min Rain = 0
KDC1 240117Z 24009KT 29/M03 A2979 RMK A01 T02891026  RH  013%=      5-min Rain = 0
KDC1 240118Z 25009KT 29/M02 A2979 RMK A01 T02881024  RH  013%=      5-min Rain = 0
KDC1 240119Z 24010KT 29/M03 A2979 RMK A01 T02881026  RH  013%=      5-min Rain = 0
KDC1 240120Z 24007KT 29/M03 A2979 RMK A01 T02881026  RH  013%=      5-min Rain = 0
KDC1 240121Z 24008KT 29/M02 A2979 RMK A01 T02871024  RH  013%=      5-min Rain = 0
KDC1 240122Z 24009KT 29/M03 A2979 RMK A01 T02861028  RH  013%=      5-min Rain = 0
KDC1 240123Z 24008KT 29/M03 A2979 RMK A01 T02861026  RH  013%=      5-min Rain = 0
KDC1 240124Z 24009KT 29/M02 A2979 RMK A01 T02861024  RH  013%=      5-min Rain = 0
KDC1 240125Z 24010KT 29/M02 A2979 RMK A01 T02851022  RH  013%=      5-min Rain = 0
KDC1 240126Z 25011KT 28/M02 A2979 RMK A01 T02841022  RH  014%=      5-min Rain = 0
KDC1 240127Z 26012KT 28/M03 A2979 RMK A01 T02821028  RH  013%=      5-min Rain = 0
KDC1 240128Z 25013KT 28/M04 A2979 RMK A01 T02831044  RH  011%=      5-min Rain = 0
KDC1 240129Z 25014KT 29/M05 A2979 RMK A01 T02871048  RH  011%=      5-min Rain = 0
KDC1 240130Z 24009G14KT 29/M05 A2979 RMK A01 T02891047  RH  011%=      5-min Rain = 0
KDC1 240131Z 25011KT 29/M04 A2979 RMK A01 T02891041  RH  011%=      5-min Rain = 0
KDC1 240132Z 24010KT 29/M04 A2979 RMK A01 T02881038  RH  012%=      5-min Rain = 0
KDC1 240133Z 25009KT 29/M04 A2979 RMK A01 T02861036  RH  012%=      5-min Rain = 0
KDC1 240134Z 24009KT 29/M03 A2979 RMK A01 T02851033  RH  012%=      5-min Rain = 0
KDC1 240135Z 24008KT 28/M03 A2979 RMK A01 T02831033  RH  013%=      5-min Rain = 0
KDC1 240136Z 24006KT 28/M03 A2979 RMK A01 T02821034  RH  013%=      5-min Rain = 0
KDC1 240137Z 23005KT 28/M03 A2979 RMK A01 T02811031  RH  013%=      5-min Rain = 0
KDC1 240138Z 24006KT 28/M03 A2979 RMK A01 T02811027  RH  013%=      5-min Rain = 0
KDC1 240139Z 24006KT 28/M03 A2979 RMK A01 T02801027  RH  013%=      5-min Rain = 0
KDC1 240140Z 24005KT 28/M02 A2979 RMK A01 T02791022  RH  014%=      5-min Rain = 0
KDC1 240141Z 23006KT 28/M02 A2979 RMK A01 T02771021  RH  014%=      5-min Rain = 0
KDC1 240142Z 24006KT 28/M03 A2979 RMK A01 T02761025  RH  014%=      5-min Rain = 0
KDC1 240143Z 23006KT 28/M02 A2979 RMK A01 T02761023  RH  014%=      5-min Rain = 0
KDC1 240144Z 23005KT 28/M02 A2979 RMK A01 T02751017  RH  015%=      5-min Rain = 0
KDC1 240145Z 24006KT 27/M01 A2979 RMK A01 T02721012  RH  016%=      5-min Rain = 0
KDC1 240146Z 24005KT 27/M01 A2979 RMK A01 T02691009  RH  016%=      5-min Rain = 0
KDC1 240147Z 24007KT 27/M01 A2979 RMK A01 T02661007  RH  017%=      5-min Rain = 0
KDC1 240148Z 24007KT 26/M01 A2979 RMK A01 T02631006  RH  017%=      5-min Rain = 0
KDC1 240149Z 24007KT 26/M00 A298 RMK A01 T02611004  RH  017%=      5-min Rain = 0
KDC1 240150Z 25008KT 26/M01 A298 RMK A01 T02591009  RH  017%=      5-min Rain = 0
KDC1 240151Z 25009KT 26/M01 A298 RMK A01 T02591010  RH  017%=      5-min Rain = 0
KDC1 240152Z 24009KT 26/M02 A2979 RMK A01 T02601015  RH  016%=      5-min Rain = 0
KDC1 240153Z 25010KT 26/M01 A2979 RMK A01 T02611011  RH  017%=      5-min Rain = 0
KDC1 240154Z 25009KT 26/M01 A2979 RMK A01 T02611013  RH  016%=      5-min Rain = 0
KDC1 240155Z 25010KT 26/M01 A2979 RMK A01 T02611014  RH  016%=      5-min Rain = 0
KDC1 240156Z 25009KT 26/M02 A2979 RMK A01 T02611017  RH  016%=      5-min Rain = 0
KDC1 240157Z 25009KT 26/M02 A2979 RMK A01 T02611022  RH  015%=      5-min Rain = 0
KDC1 240158Z 25009KT 26/M03 A2979 RMK A01 T02631025  RH  015%=      5-min Rain = 0
KDC1 240159Z 25009KT 26/M03 A2979 RMK A01 T02641028  RH  014%=      5-min Rain = 0
KDC1 240200Z 25008KT 26/M03 A2979 RMK A01 T02641029  RH  014%=      5-min Rain = 0
KDC1 240201Z 25009KT 27/M03 A2979 RMK A01 T02651030  RH  014%=      5-min Rain = 0
KDC1 240202Z 25008KT 27/M03 A2979 RMK A01 T02651030  RH  014%=      5-min Rain = 0
KDC1 240203Z 25008KT 27/M03 A2979 RMK A01 T02651031  RH  014%=      5-min Rain = 0
KDC1 240204Z 25008KT 27/M03 A2979 RMK A01 T02651029  RH  014%=      5-min Rain = 0
KDC1 240205Z 25008KT 27/M03 A298 RMK A01 T02651028  RH  014%=      5-min Rain = 0
KDC1 240206Z 25008KT 26/M02 A298 RMK A01 T02641020  RH  015%=      5-min Rain = 0
KDC1 240207Z 24008KT 26/M02 A298 RMK A01 T02621017  RH  016%=      5-min Rain = 0
KDC1 240208Z 25008KT 26/M02 A298 RMK A01 T02601017  RH  016%=      5-min Rain = 0
KDC1 240209Z 24006KT 26/M02 A298 RMK A01 T02581017  RH  016%=      5-min Rain = 0
KDC1 240210Z 24007KT 26/M01 A298 RMK A01 T02561014  RH  017%=      5-min Rain = 0
KDC1 240211Z 25008KT 26/M01 A298 RMK A01 T02551013  RH  017%=      5-min Rain = 0
KDC1 240212Z 25007KT 25/M01 A298 RMK A01 T02541012  RH  017%=      5-min Rain = 0
KDC1 240213Z 25007KT 25/M01 A298 RMK A01 T02531011  RH  018%=      5-min Rain = 0
KDC1 240214Z 25007KT 25/M01 A298 RMK A01 T02511009  RH  018%=      5-min Rain = 0
KDC1 240215Z 24007KT 25/M01 A298 RMK A01 T02501009  RH  018%=      5-min Rain = 0
KDC1 240216Z 25007KT 25/M01 A298 RMK A01 T02491009  RH  018%=      5-min Rain = 0
KDC1 240217Z 24006KT 25/M01 A298 RMK A01 T02481009  RH  018%=      5-min Rain = 0
KDC1 240218Z 24006KT 25/M01 A298 RMK A01 T02481006  RH  019%=      5-min Rain = 0
KDC1 240219Z 24006KT 25/M01 A298 RMK A01 T02461006  RH  019%=      5-min Rain = 0
KDC1 240220Z 24006KT 25/M01 A298 RMK A01 T02451009  RH  019%=      5-min Rain = 0
KDC1 240221Z 24006KT 25/M01 A298 RMK A01 T02451013  RH  018%=      5-min Rain = 0
KDC1 240222Z 24007KT 25/M01 A298 RMK A01 T02451012  RH  018%=      5-min Rain = 0
KDC1 240223Z 24006KT 25/M01 A298 RMK A01 T02471014  RH  018%=      5-min Rain = 0
KDC1 240224Z 24006KT 25/M02 A298 RMK A01 T02481017  RH  017%=      5-min Rain = 0
KDC1 240225Z 24005KT 25/M02 A298 RMK A01 T02491017  RH  017%=      5-min Rain = 0
KDC1 240226Z 24006KT 25/M02 A298 RMK A01 T02501017  RH  017%=      5-min Rain = 0
KDC1 240227Z 24006KT 25/M01 A298 RMK A01 T02501014  RH  017%=      5-min Rain = 0
KDC1 240228Z 24005KT 25/M02 A298 RMK A01 T02501016  RH  017%=      5-min Rain = 0
KDC1 240229Z 24004KT 25/M01 A298 RMK A01 T02501014  RH  017%=      5-min Rain = 0
KDC1 240230Z 24004KT 25/M02 A298 RMK A01 T02501018  RH  017%=      5-min Rain = 0
KDC1 240231Z 24005KT 25/M02 A298 RMK A01 T02501021  RH  016%=      5-min Rain = 0
KDC1 240232Z 24005KT 25/M02 A298 RMK A01 T02501023  RH  016%=      5-min Rain = 0
KDC1 240233Z 23004KT 25/M02 A298 RMK A01 T02511022  RH  016%=      5-min Rain = 0
KDC1 240234Z 24003KT 25/M02 A298 RMK A01 T02511021  RH  016%=      5-min Rain = 0
KDC1 240235Z 24004KT 25/M02 A298 RMK A01 T02511017  RH  017%=      5-min Rain = 0
KDC1 240236Z 24004KT 25/M02 A298 RMK A01 T02501017  RH  017%=      5-min Rain = 0
KDC1 240237Z 23004KT 25/M02 A298 RMK A01 T02491017  RH  017%=      5-min Rain = 0
KDC1 240238Z 24003KT 25/M01 A298 RMK A01 T02481012  RH  018%=      5-min Rain = 0
KDC1 240239Z 23003KT 25/M01 A298 RMK A01 T02471007  RH  019%=      5-min Rain = 0
KDC1 240240Z 24003KT 25/M00 A298 RMK A01 T02451004  RH  019%=      5-min Rain = 0
KDC1 240241Z 23003KT 24/00 A298 RMK A01 T02430000  RH  020%=      5-min Rain = 0
KDC1 240242Z 24004KT 24/M00 A298 RMK A01 T02411003  RH  020%=      5-min Rain = 0
KDC1 240243Z 23004KT 24/M01 A298 RMK A01 T02391012  RH  019%=      5-min Rain = 0
KDC1 240244Z 23004KT 24/M02 A298 RMK A01 T02391018  RH  018%=      5-min Rain = 0
KDC1 240245Z 24004KT 24/M02 A298 RMK A01 T02391017  RH  018%=      5-min Rain = 0
KDC1 240246Z 23004KT 24/M02 A298 RMK A01 T02381016  RH  018%=      5-min Rain = 0
KDC1 240247Z 24004KT 24/M01 A298 RMK A01 T02381012  RH  019%=      5-min Rain = 0
KDC1 240248Z 23003KT 24/M01 A298 RMK A01 T02371006  RH  020%=      5-min Rain = 0
KDC1 240249Z 23003KT 23/00 A298 RMK A01 T02340004  RH  022%=      5-min Rain = 0
KDC1 240250Z 24003KT 23/01 A298 RMK A01 T02290014  RH  024%=      5-min Rain = 0
KDC1 240251Z 24004KT 22/02 A298 RMK A01 T02240024  RH  027%=      5-min Rain = 0
KDC1 240252Z 24004KT 22/02 A298 RMK A01 T02210022  RH  027%=      5-min Rain = 0
KDC1 240253Z 23004KT 22/02 A298 RMK A01 T02200024  RH  027%=      5-min Rain = 0
KDC1 240254Z 24004KT 22/02 A298 RMK A01 T02190022  RH  027%=      5-min Rain = 0
KDC1 240255Z 24004KT 22/02 A298 RMK A01 T02170018  RH  027%=      5-min Rain = 0
KDC1 240256Z 24003KT 22/02 A298 RMK A01 T02160017  RH  027%=      5-min Rain = 0
KDC1 240257Z 25004KT 22/02 A298 RMK A01 T02150015  RH  027%=      5-min Rain = 0
KDC1 240258Z 25004KT 22/02 A298 RMK A01 T02160017  RH  027%=      5-min Rain = 0
KDC1 240259Z 25004KT 21/03 A298 RMK A01 T02140026  RH  029%=      5-min Rain = 0
KDC1 240300Z 24004KT 21/02 A2981 RMK A01 T02120023  RH  029%=      5-min Rain = 0
KDC1 240301Z 24003KT 21/02 A2981 RMK A01 T02100019  RH  028%=      5-min Rain = 0
KDC1 240302Z 25003KT 21/02 A2981 RMK A01 T02090019  RH  028%=      5-min Rain = 0
KDC1 240303Z 25004KT 21/01 A2981 RMK A01 T02090007  RH  026%=      5-min Rain = 0
KDC1 240304Z 25004KT 21/00 A2981 RMK A01 T02100001  RH  025%=      5-min Rain = 0
KDC1 240305Z 25004KT 21/M01 A2981 RMK A01 T02111005  RH  024%=      5-min Rain = 0
KDC1 240306Z 25004KT 21/M01 A2981 RMK A01 T02111006  RH  023%=      5-min Rain = 0
KDC1 240307Z 25003KT 21/M00 A2981 RMK A01 T02121004  RH  024%=      5-min Rain = 0
KDC1 240308Z 25003KT 21/M01 A2981 RMK A01 T02111006  RH  023%=      5-min Rain = 0
KDC1 240309Z 24002KT 21/M00 A2981 RMK A01 T02091001  RH  025%=      5-min Rain = 0
KDC1 240310Z 24002KT 21/02 A2981 RMK A01 T02080020  RH  029%=      5-min Rain = 0
KDC1 240311Z 24002KT 21/03 A2981 RMK A01 T02070032  RH  031%=      5-min Rain = 0
KDC1 240312Z 24002KT 21/03 A2981 RMK A01 T02060028  RH  031%=      5-min Rain = 0
KDC1 240313Z 24002KT 21/03 A2981 RMK A01 T02060026  RH  031%=      5-min Rain = 0
KDC1 240314Z 24002KT 21/02 A2981 RMK A01 T02050020  RH  029%=      5-min Rain = 0
KDC1 240315Z 23002KT 21/03 A2981 RMK A01 T02050026  RH  031%=      5-min Rain = 0
KDC1 240316Z 23002KT 21/02 A2981 RMK A01 T02050019  RH  029%=      5-min Rain = 0
KDC1 240317Z 22003KT 21/01 A2981 RMK A01 T02050013  RH  028%=      5-min Rain = 0
KDC1 240318Z 21003KT 21/M00 A2981 RMK A01 T02061001  RH  025%=      5-min Rain = 0
KDC1 240319Z 22003KT 21/M01 A2981 RMK A01 T02081010  RH  023%=      5-min Rain = 0
KDC1 240320Z 23003KT 21/M02 A2981 RMK A01 T02101015  RH  022%=      5-min Rain = 0
KDC1 240321Z 21003KT 21/M01 A2981 RMK A01 T02111005  RH  024%=      5-min Rain = 0
KDC1 240322Z 22004KT 21/M02 A2981 RMK A01 T02131015  RH  022%=      5-min Rain = 0
KDC1 240323Z 22004KT 22/M03 A2981 RMK A01 T02161025  RH  020%=      5-min Rain = 0
KDC1 240324Z 21003KT 22/M02 A2981 RMK A01 T02201022  RH  020%=      5-min Rain = 0
KDC1 240325Z 21004KT 22/M01 A2981 RMK A01 T02221014  RH  021%=      5-min Rain = 0
KDC1 240326Z 22005KT 22/M02 A2981 RMK A01 T02231023  RH  019%=      5-min Rain = 0
KDC1 240327Z 22004KT 22/M03 A2982 RMK A01 T02241027  RH  019%=      5-min Rain = 0
KDC1 240328Z 22003KT 22/M02 A2982 RMK A01 T02241018  RH  020%=      5-min Rain = 0
KDC1 240329Z 23002KT 22/M02 A2982 RMK A01 T02241017  RH  020%=      5-min Rain = 0
KDC1 240330Z 24002KT 22/M02 A2982 RMK A01 T02231016  RH  020%=      5-min Rain = 0
KDC1 240331Z 23003KT 22/M01 A2982 RMK A01 T02221013  RH  021%=      5-min Rain = 0
KDC1 240332Z 23003KT 22/M02 A2982 RMK A01 T02211017  RH  020%=      5-min Rain = 0
KDC1 240333Z 23003KT 22/M00 A2982 RMK A01 T02201003  RH  023%=      5-min Rain = 0
KDC1 240334Z 24003KT 21/01 A2982 RMK A01 T02140005  RH  025%=      5-min Rain = 0
KDC1 240335Z 24003KT 21/02 A2982 RMK A01 T02070018  RH  028%=      5-min Rain = 0
KDC1 240336Z 24003KT 20/03 A2982 RMK A01 T02010027  RH  032%=      5-min Rain = 0
KDC1 240337Z 23003KT 20/02 A2982 RMK A01 T01980023  RH  031%=      5-min Rain = 0
KDC1 240338Z 22003KT 20/01 A2982 RMK A01 T01970010  RH  029%=      5-min Rain = 0
KDC1 240339Z 24003KT 20/00 A2982 RMK A01 T01970002  RH  027%=      5-min Rain = 0
KDC1 240340Z 25004KT 20/00 A2982 RMK A01 T02000004  RH  027%=      5-min Rain = 0
KDC1 240341Z 25005KT 20/01 A2982 RMK A01 T02020014  RH  029%=      5-min Rain = 0
KDC1 240342Z 25004KT 20/01 A2982 RMK A01 T02010006  RH  027%=      5-min Rain = 0
KDC1 240343Z 27003KT 20/01 A2982 RMK A01 T01990008  RH  028%=      5-min Rain = 0
KDC1 240344Z 23002KT 19/01 A2982 RMK A01 T01930012  RH  030%=      5-min Rain = 0
KDC1 240345Z 24002KT 19/01 A2982 RMK A01 T01880013  RH  031%=      5-min Rain = 0
KDC1 240346Z 26003KT 19/00 A2982 RMK A01 T01860002  RH  029%=      5-min Rain = 0
KDC1 240347Z 26004KT 19/M01 A2982 RMK A01 T01881013  RH  026%=      5-min Rain = 0
KDC1 240348Z 26004KT 19/M01 A2982 RMK A01 T01921009  RH  026%=      5-min Rain = 0
KDC1 240349Z 27005KT 19/M02 A2983 RMK A01 T01931016  RH  024%=      5-min Rain = 0
KDC1 240350Z 27005KT 19/M01 A2983 RMK A01 T01941013  RH  025%=      5-min Rain = 0
KDC1 240351Z 28005KT 20/M02 A2983 RMK A01 T01951018  RH  024%=      5-min Rain = 0
KDC1 240352Z 28004KT 20/M01 A2983 RMK A01 T01961013  RH  024%=      5-min Rain = 0
KDC1 240353Z 29005KT 20/M01 A2983 RMK A01 T01951008  RH  025%=      5-min Rain = 0
KDC1 240354Z 29005KT 19/M01 A2983 RMK A01 T01921006  RH  026%=      5-min Rain = 0
KDC1 240355Z 29006KT 19/M00 A2983 RMK A01 T01881001  RH  028%=      5-min Rain = 0
KDC1 240356Z 30007KT 19/00 A2983 RMK A01 T018500-0  RH  029%=      5-min Rain = 0
KDC1 240357Z 30007KT 18/01 A2983 RMK A01 T01810006  RH  031%=      5-min Rain = 0
KDC1 240358Z 29006KT 18/01 A2983 RMK A01 T01780009  RH  032%=      5-min Rain = 0
KDC1 240359Z 29006KT 18/01 A2983 RMK A01 T01750008  RH  032%=      5-min Rain = 0
KDC1 240400Z 28006KT 17/01 A2983 RMK A01 T01730006  RH  032%=      5-min Rain = 0
KDC1 240401Z 28005KT 17/01 A2983 RMK A01 T01730006  RH  032%=      5-min Rain = 0
KDC1 240402Z 29006KT 17/01 A2983 RMK A01 T01720008  RH  033%=      5-min Rain = 0
KDC1 240403Z 29006KT 17/01 A2984 RMK A01 T01710010  RH  034%=      5-min Rain = 0
KDC1 240404Z 29006KT 17/01 A2984 RMK A01 T01710010  RH  034%=      5-min Rain = 0
KDC1 240405Z 29006KT 17/01 A2984 RMK A01 T01700009  RH  034%=      5-min Rain = 0
KDC1 240406Z 29005KT 17/01 A2984 RMK A01 T01700008  RH  034%=      5-min Rain = 0
KDC1 240407Z 29006KT 17/01 A2984 RMK A01 T01700006  RH  033%=      5-min Rain = 0
KDC1 240408Z 29006KT 17/01 A2984 RMK A01 T01700007  RH  033%=      5-min Rain = 0
KDC1 240409Z 29005KT 17/01 A2984 RMK A01 T01700008  RH  034%=      5-min Rain = 0
KDC1 240410Z 29006KT 17/01 A2984 RMK A01 T01690006  RH  033%=      5-min Rain = 0
KDC1 240411Z 29006KT 17/01 A2984 RMK A01 T01690005  RH  033%=      5-min Rain = 0
KDC1 240412Z 29008KT 17/01 A2984 RMK A01 T01690005  RH  033%=      5-min Rain = 0
KDC1 240413Z 29008KT 17/00 A2984 RMK A01 T01680002  RH  032%=      5-min Rain = 0
KDC1 240414Z 30008KT 17/M00 A2984 RMK A01 T01681001  RH  032%=      5-min Rain = 0
KDC1 240415Z 29009KT 17/M00 A2984 RMK A01 T01671004  RH  031%=      5-min Rain = 0
KDC1 240416Z 29008KT 17/M01 A2984 RMK A01 T01671007  RH  030%=      5-min Rain = 0
KDC1 240417Z 29008KT 17/M01 A2984 RMK A01 T01671008  RH  030%=      5-min Rain = 0
KDC1 240418Z 29008KT 17/M01 A2984 RMK A01 T01661009  RH  030%=      5-min Rain = 0
KDC1 240419Z 29008KT 17/M01 A2984 RMK A01 T01661011  RH  030%=      5-min Rain = 0
KDC1 240420Z 28008KT 17/M02 A2984 RMK A01 T01671017  RH  028%=      5-min Rain = 0
KDC1 240421Z 28007KT 17/M02 A2984 RMK A01 T01711020  RH  027%=      5-min Rain = 0
KDC1 240422Z 27007KT 18/M02 A2984 RMK A01 T01751022  RH  026%=      5-min Rain = 0
KDC1 240423Z 27007KT 18/M02 A2984 RMK A01 T01781021  RH  026%=      5-min Rain = 0
KDC1 240424Z 27007KT 18/M02 A2984 RMK A01 T01811017  RH  026%=      5-min Rain = 0
KDC1 240425Z 27006KT 18/M02 A2984 RMK A01 T01821017  RH  026%=      5-min Rain = 0
KDC1 240426Z 27006KT 18/M02 A2984 RMK A01 T01841017  RH  025%=      5-min Rain = 0
KDC1 240427Z 27006KT 19/M02 A2984 RMK A01 T01851016  RH  025%=      5-min Rain = 0
KDC1 240428Z 27006KT 19/M01 A2984 RMK A01 T01861011  RH  026%=      5-min Rain = 0
KDC1 240429Z 26007KT 19/M01 A2984 RMK A01 T01851008  RH  027%=      5-min Rain = 0
KDC1 240430Z 27006KT 18/M00 A2984 RMK A01 T01831004  RH  028%=      5-min Rain = 0
KDC1 240431Z 29005KT 18/01 A2984 RMK A01 T01790011  RH  032%=      5-min Rain = 0
KDC1 240432Z 28006KT 17/01 A2984 RMK A01 T01720013  RH  034%=      5-min Rain = 0
KDC1 240433Z 28007KT 17/01 A2984 RMK A01 T01680008  RH  034%=      5-min Rain = 0
KDC1 240434Z 27007KT 17/01 A2984 RMK A01 T01650007  RH  034%=      5-min Rain = 0
KDC1 240435Z 28008KT 16/00 A2984 RMK A01 T01630004  RH  034%=      5-min Rain = 0
KDC1 240436Z 28007KT 16/00 A2984 RMK A01 T01630001  RH  033%=      5-min Rain = 0
KDC1 240437Z 29007KT 16/00 A2984 RMK A01 T01630002  RH  034%=      5-min Rain = 0
KDC1 240438Z 29008KT 16/00 A2984 RMK A01 T01620003  RH  034%=      5-min Rain = 0
KDC1 240439Z 29010KT 16/00 A2984 RMK A01 T01600004  RH  035%=      5-min Rain = 0
KDC1 240440Z 29010KT 16/01 A2984 RMK A01 T01590005  RH  035%=      5-min Rain = 0
KDC1 240441Z 29010KT 16/00 A2984 RMK A01 T01580000  RH  034%=      5-min Rain = 0
KDC1 240442Z 30010KT 16/M00 A2984 RMK A01 T01591004  RH  033%=      5-min Rain = 0
KDC1 240443Z 30011KT 16/M01 A2984 RMK A01 T01611006  RH  032%=      5-min Rain = 0
KDC1 240444Z 30011KT 16/M01 A2985 RMK A01 T01621006  RH  032%=      5-min Rain = 0
KDC1 240445Z 30010KT 16/M01 A2985 RMK A01 T01611010  RH  031%=      5-min Rain = 0
KDC1 240446Z 30010KT 16/M01 A2985 RMK A01 T01631014  RH  030%=      5-min Rain = 0
KDC1 240447Z 30010KT 17/M02 A2985 RMK A01 T01651015  RH  029%=      5-min Rain = 0
KDC1 240448Z 29010KT 17/M02 A2985 RMK A01 T01651016  RH  029%=      5-min Rain = 0
KDC1 240449Z 29009KT 17/M02 A2985 RMK A01 T01651016  RH  029%=      5-min Rain = 0
KDC1 240450Z 29008KT 17/M01 A2985 RMK A01 T01651014  RH  029%=      5-min Rain = 0
KDC1 240451Z 30008KT 16/M01 A2985 RMK A01 T01641013  RH  030%=      5-min Rain = 0
KDC1 240452Z 30008KT 16/M01 A2985 RMK A01 T01631011  RH  031%=      5-min Rain = 0
KDC1 240453Z 30009KT 16/M01 A2985 RMK A01 T01611009  RH  031%=      5-min Rain = 0
KDC1 240454Z 30010KT 16/M01 A2985 RMK A01 T01601009  RH  032%=      5-min Rain = 0
KDC1 240455Z 30009KT 16/M01 A2985 RMK A01 T01591009  RH  032%=      5-min Rain = 0
KDC1 240456Z 30010KT 16/M01 A2985 RMK A01 T01591010  RH  032%=      5-min Rain = 0
KDC1 240457Z 30010KT 16/M01 A2985 RMK A01 T01601012  RH  031%=      5-min Rain = 0
KDC1 240458Z 29010KT 16/M01 A2985 RMK A01 T01611014  RH  030%=      5-min Rain = 0
KDC1 240459Z 31010KT 16/M02 A2985 RMK A01 T01631018  RH  029%=      5-min Rain = 0

Page generated in 0.1486 seconds.